<gpx creator="Cyclotour.ca" version="1.1" xmlns:gpsies="http://www.gpsies.com/GPX/1/0" xmlns:xsi="http://www.w3.org/2001/XMLSchema-instance" xmlns="http://www.topografix.com/GPX/1/1" xsi:schemaLocation="http://www.topografix.com/GPX/1/1 http://www.topografix.com/GPX/1/1/gpx.xsd http://www.gpsies.com/GPX/1/0 http://www.gpsies.com/gpsies.xsd">
<trk>
<name>Yamachiche- St- Barnabé  </name>
<trkseg>
<trkpt lat="46.282180000" lon="-72.831070000">
<ele>0</ele>
<time>2026-09-04T07:22:08Z</time>
</trkpt>
<trkpt lat="46.282830000" lon="-72.829970000">
<ele>0</ele>
<time>2026-09-04T07:22:09Z</time>
</trkpt>
<trkpt lat="46.283260000" lon="-72.829130000">
<ele>0</ele>
<time>2026-09-04T07:22:10Z</time>
</trkpt>
<trkpt lat="46.284040000" lon="-72.827710000">
<ele>0</ele>
<time>2026-09-04T07:22:11Z</time>
</trkpt>
<trkpt lat="46.284820000" lon="-72.826360000">
<ele>0</ele>
<time>2026-09-04T07:22:12Z</time>
</trkpt>
<trkpt lat="46.285960000" lon="-72.824350000">
<ele>0</ele>
<time>2026-09-04T07:22:13Z</time>
</trkpt>
<trkpt lat="46.287010000" lon="-72.822460000">
<ele>0</ele>
<time>2026-09-04T07:22:14Z</time>
</trkpt>
<trkpt lat="46.287270000" lon="-72.821920000">
<ele>0</ele>
<time>2026-09-04T07:22:15Z</time>
</trkpt>
<trkpt lat="46.287610000" lon="-72.821080000">
<ele>0</ele>
<time>2026-09-04T07:22:16Z</time>
</trkpt>
<trkpt lat="46.287770000" lon="-72.820560000">
<ele>0</ele>
<time>2026-09-04T07:22:17Z</time>
</trkpt>
<trkpt lat="46.287990000" lon="-72.819760000">
<ele>0</ele>
<time>2026-09-04T07:22:18Z</time>
</trkpt>
<trkpt lat="46.288110000" lon="-72.818920000">
<ele>0</ele>
<time>2026-09-04T07:22:19Z</time>
</trkpt>
<trkpt lat="46.288250000" lon="-72.817860000">
<ele>0</ele>
<time>2026-09-04T07:22:20Z</time>
</trkpt>
<trkpt lat="46.288250000" lon="-72.817860000">
<ele>0</ele>
<time>2026-09-04T07:22:21Z</time>
</trkpt>
<trkpt lat="46.288260000" lon="-72.817810000">
<ele>0</ele>
<time>2026-09-04T07:22:22Z</time>
</trkpt>
<trkpt lat="46.288390000" lon="-72.817720000">
<ele>0</ele>
<time>2026-09-04T07:22:23Z</time>
</trkpt>
<trkpt lat="46.288390000" lon="-72.817720000">
<ele>0</ele>
<time>2026-09-04T07:22:24Z</time>
</trkpt>
<trkpt lat="46.289020000" lon="-72.817310000">
<ele>0</ele>
<time>2026-09-04T07:22:25Z</time>
</trkpt>
<trkpt lat="46.290060000" lon="-72.816920000">
<ele>0</ele>
<time>2026-09-04T07:22:26Z</time>
</trkpt>
<trkpt lat="46.290740000" lon="-72.816620000">
<ele>0</ele>
<time>2026-09-04T07:22:27Z</time>
</trkpt>
<trkpt lat="46.291470000" lon="-72.816240000">
<ele>0</ele>
<time>2026-09-04T07:22:28Z</time>
</trkpt>
<trkpt lat="46.291800000" lon="-72.816130000">
<ele>0</ele>
<time>2026-09-04T07:22:29Z</time>
</trkpt>
<trkpt lat="46.292000000" lon="-72.815840000">
<ele>0</ele>
<time>2026-09-04T07:22:30Z</time>
</trkpt>
<trkpt lat="46.292130000" lon="-72.815670000">
<ele>0</ele>
<time>2026-09-04T07:22:31Z</time>
</trkpt>
<trkpt lat="46.292180000" lon="-72.815580000">
<ele>0</ele>
<time>2026-09-04T07:22:32Z</time>
</trkpt>
<trkpt lat="46.292200000" lon="-72.815520000">
<ele>0</ele>
<time>2026-09-04T07:22:33Z</time>
</trkpt>
<trkpt lat="46.292380000" lon="-72.815150000">
<ele>0</ele>
<time>2026-09-04T07:22:34Z</time>
</trkpt>
<trkpt lat="46.292440000" lon="-72.815010000">
<ele>0</ele>
<time>2026-09-04T07:22:35Z</time>
</trkpt>
<trkpt lat="46.292600000" lon="-72.814360000">
<ele>0</ele>
<time>2026-09-04T07:22:36Z</time>
</trkpt>
<trkpt lat="46.292840000" lon="-72.812930000">
<ele>0</ele>
<time>2026-09-04T07:22:37Z</time>
</trkpt>
<trkpt lat="46.293030000" lon="-72.811450000">
<ele>0</ele>
<time>2026-09-04T07:22:38Z</time>
</trkpt>
<trkpt lat="46.293090000" lon="-72.810980000">
<ele>0</ele>
<time>2026-09-04T07:22:39Z</time>
</trkpt>
<trkpt lat="46.293440000" lon="-72.809180000">
<ele>0</ele>
<time>2026-09-04T07:22:40Z</time>
</trkpt>
<trkpt lat="46.293680000" lon="-72.807800000">
<ele>0</ele>
<time>2026-09-04T07:22:41Z</time>
</trkpt>
<trkpt lat="46.293960000" lon="-72.805990000">
<ele>0</ele>
<time>2026-09-04T07:22:42Z</time>
</trkpt>
<trkpt lat="46.293990000" lon="-72.805750000">
<ele>0</ele>
<time>2026-09-04T07:22:43Z</time>
</trkpt>
<trkpt lat="46.294130000" lon="-72.804760000">
<ele>0</ele>
<time>2026-09-04T07:22:44Z</time>
</trkpt>
<trkpt lat="46.294340000" lon="-72.802570000">
<ele>0</ele>
<time>2026-09-04T07:22:45Z</time>
</trkpt>
<trkpt lat="46.294270000" lon="-72.802100000">
<ele>0</ele>
<time>2026-09-04T07:22:46Z</time>
</trkpt>
<trkpt lat="46.294220000" lon="-72.801430000">
<ele>0</ele>
<time>2026-09-04T07:22:47Z</time>
</trkpt>
<trkpt lat="46.294180000" lon="-72.801010000">
<ele>0</ele>
<time>2026-09-04T07:22:48Z</time>
</trkpt>
<trkpt lat="46.294140000" lon="-72.800610000">
<ele>0</ele>
<time>2026-09-04T07:22:49Z</time>
</trkpt>
<trkpt lat="46.294140000" lon="-72.799770000">
<ele>0</ele>
<time>2026-09-04T07:22:50Z</time>
</trkpt>
<trkpt lat="46.294230000" lon="-72.799800000">
<ele>0</ele>
<time>2026-09-04T07:22:51Z</time>
</trkpt>
<trkpt lat="46.294230000" lon="-72.799800000">
<ele>0</ele>
<time>2026-09-04T07:22:52Z</time>
</trkpt>
<trkpt lat="46.294620000" lon="-72.799910000">
<ele>0</ele>
<time>2026-09-04T07:22:53Z</time>
</trkpt>
<trkpt lat="46.295900000" lon="-72.800060000">
<ele>0</ele>
<time>2026-09-04T07:22:54Z</time>
</trkpt>
<trkpt lat="46.296810000" lon="-72.800170000">
<ele>0</ele>
<time>2026-09-04T07:22:55Z</time>
</trkpt>
<trkpt lat="46.296960000" lon="-72.800190000">
<ele>0</ele>
<time>2026-09-04T07:22:56Z</time>
</trkpt>
<trkpt lat="46.297130000" lon="-72.800250000">
<ele>0</ele>
<time>2026-09-04T07:22:57Z</time>
</trkpt>
<trkpt lat="46.297490000" lon="-72.800340000">
<ele>0</ele>
<time>2026-09-04T07:22:58Z</time>
</trkpt>
<trkpt lat="46.297670000" lon="-72.800420000">
<ele>0</ele>
<time>2026-09-04T07:22:59Z</time>
</trkpt>
<trkpt lat="46.298020000" lon="-72.800520000">
<ele>0</ele>
<time>2026-09-04T07:23:00Z</time>
</trkpt>
<trkpt lat="46.298410000" lon="-72.800520000">
<ele>0</ele>
<time>2026-09-04T07:23:01Z</time>
</trkpt>
<trkpt lat="46.299060000" lon="-72.800430000">
<ele>0</ele>
<time>2026-09-04T07:23:02Z</time>
</trkpt>
<trkpt lat="46.300310000" lon="-72.800240000">
<ele>0</ele>
<time>2026-09-04T07:23:03Z</time>
</trkpt>
<trkpt lat="46.301020000" lon="-72.800130000">
<ele>0</ele>
<time>2026-09-04T07:23:04Z</time>
</trkpt>
<trkpt lat="46.301960000" lon="-72.799990000">
<ele>0</ele>
<time>2026-09-04T07:23:05Z</time>
</trkpt>
<trkpt lat="46.302680000" lon="-72.799880000">
<ele>0</ele>
<time>2026-09-04T07:23:06Z</time>
</trkpt>
<trkpt lat="46.303040000" lon="-72.799860000">
<ele>0</ele>
<time>2026-09-04T07:23:07Z</time>
</trkpt>
<trkpt lat="46.304070000" lon="-72.799890000">
<ele>0</ele>
<time>2026-09-04T07:23:08Z</time>
</trkpt>
<trkpt lat="46.305020000" lon="-72.799990000">
<ele>0</ele>
<time>2026-09-04T07:23:09Z</time>
</trkpt>
<trkpt lat="46.305680000" lon="-72.800120000">
<ele>0</ele>
<time>2026-09-04T07:23:10Z</time>
</trkpt>
<trkpt lat="46.306620000" lon="-72.800310000">
<ele>0</ele>
<time>2026-09-04T07:23:11Z</time>
</trkpt>
<trkpt lat="46.306900000" lon="-72.800330000">
<ele>0</ele>
<time>2026-09-04T07:23:12Z</time>
</trkpt>
<trkpt lat="46.307150000" lon="-72.800310000">
<ele>0</ele>
<time>2026-09-04T07:23:13Z</time>
</trkpt>
<trkpt lat="46.308040000" lon="-72.800150000">
<ele>0</ele>
<time>2026-09-04T07:23:14Z</time>
</trkpt>
<trkpt lat="46.308300000" lon="-72.800110000">
<ele>0</ele>
<time>2026-09-04T07:23:15Z</time>
</trkpt>
<trkpt lat="46.308540000" lon="-72.800090000">
<ele>0</ele>
<time>2026-09-04T07:23:16Z</time>
</trkpt>
<trkpt lat="46.308900000" lon="-72.800100000">
<ele>0</ele>
<time>2026-09-04T07:23:17Z</time>
</trkpt>
<trkpt lat="46.310080000" lon="-72.800200000">
<ele>0</ele>
<time>2026-09-04T07:23:18Z</time>
</trkpt>
<trkpt lat="46.311020000" lon="-72.800210000">
<ele>0</ele>
<time>2026-09-04T07:23:19Z</time>
</trkpt>
<trkpt lat="46.311240000" lon="-72.800180000">
<ele>0</ele>
<time>2026-09-04T07:23:20Z</time>
</trkpt>
<trkpt lat="46.311930000" lon="-72.800110000">
<ele>0</ele>
<time>2026-09-04T07:23:21Z</time>
</trkpt>
<trkpt lat="46.312390000" lon="-72.800030000">
<ele>0</ele>
<time>2026-09-04T07:23:22Z</time>
</trkpt>
<trkpt lat="46.312700000" lon="-72.799920000">
<ele>0</ele>
<time>2026-09-04T07:23:23Z</time>
</trkpt>
<trkpt lat="46.313370000" lon="-72.799600000">
<ele>0</ele>
<time>2026-09-04T07:23:24Z</time>
</trkpt>
<trkpt lat="46.313610000" lon="-72.799510000">
<ele>0</ele>
<time>2026-09-04T07:23:25Z</time>
</trkpt>
<trkpt lat="46.313880000" lon="-72.799440000">
<ele>0</ele>
<time>2026-09-04T07:23:26Z</time>
</trkpt>
<trkpt lat="46.314630000" lon="-72.799370000">
<ele>0</ele>
<time>2026-09-04T07:23:27Z</time>
</trkpt>
<trkpt lat="46.314810000" lon="-72.799360000">
<ele>0</ele>
<time>2026-09-04T07:23:28Z</time>
</trkpt>
<trkpt lat="46.315140000" lon="-72.799290000">
<ele>0</ele>
<time>2026-09-04T07:23:29Z</time>
</trkpt>
<trkpt lat="46.315360000" lon="-72.799210000">
<ele>0</ele>
<time>2026-09-04T07:23:30Z</time>
</trkpt>
<trkpt lat="46.315810000" lon="-72.798970000">
<ele>0</ele>
<time>2026-09-04T07:23:31Z</time>
</trkpt>
<trkpt lat="46.316640000" lon="-72.798320000">
<ele>0</ele>
<time>2026-09-04T07:23:32Z</time>
</trkpt>
<trkpt lat="46.317620000" lon="-72.797520000">
<ele>0</ele>
<time>2026-09-04T07:23:33Z</time>
</trkpt>
<trkpt lat="46.318090000" lon="-72.797180000">
<ele>0</ele>
<time>2026-09-04T07:23:34Z</time>
</trkpt>
<trkpt lat="46.318780000" lon="-72.796530000">
<ele>0</ele>
<time>2026-09-04T07:23:35Z</time>
</trkpt>
<trkpt lat="46.319680000" lon="-72.795740000">
<ele>0</ele>
<time>2026-09-04T07:23:36Z</time>
</trkpt>
<trkpt lat="46.320250000" lon="-72.795300000">
<ele>0</ele>
<time>2026-09-04T07:23:37Z</time>
</trkpt>
<trkpt lat="46.322020000" lon="-72.794250000">
<ele>0</ele>
<time>2026-09-04T07:23:38Z</time>
</trkpt>
<trkpt lat="46.322470000" lon="-72.793990000">
<ele>0</ele>
<time>2026-09-04T07:23:39Z</time>
</trkpt>
<trkpt lat="46.322670000" lon="-72.793900000">
<ele>0</ele>
<time>2026-09-04T07:23:40Z</time>
</trkpt>
<trkpt lat="46.323560000" lon="-72.793640000">
<ele>0</ele>
<time>2026-09-04T07:23:41Z</time>
</trkpt>
<trkpt lat="46.324490000" lon="-72.793410000">
<ele>0</ele>
<time>2026-09-04T07:23:42Z</time>
</trkpt>
<trkpt lat="46.325160000" lon="-72.793270000">
<ele>0</ele>
<time>2026-09-04T07:23:43Z</time>
</trkpt>
<trkpt lat="46.325710000" lon="-72.793160000">
<ele>0</ele>
<time>2026-09-04T07:23:44Z</time>
</trkpt>
<trkpt lat="46.326260000" lon="-72.793150000">
<ele>0</ele>
<time>2026-09-04T07:23:45Z</time>
</trkpt>
<trkpt lat="46.326260000" lon="-72.793150000">
<ele>0</ele>
<time>2026-09-04T07:23:46Z</time>
</trkpt>
<trkpt lat="46.326590000" lon="-72.793220000">
<ele>0</ele>
<time>2026-09-04T07:23:47Z</time>
</trkpt>
<trkpt lat="46.326810000" lon="-72.793290000">
<ele>0</ele>
<time>2026-09-04T07:23:48Z</time>
</trkpt>
<trkpt lat="46.327280000" lon="-72.793500000">
<ele>0</ele>
<time>2026-09-04T07:23:49Z</time>
</trkpt>
<trkpt lat="46.329000000" lon="-72.794280000">
<ele>0</ele>
<time>2026-09-04T07:23:50Z</time>
</trkpt>
<trkpt lat="46.329380000" lon="-72.794460000">
<ele>0</ele>
<time>2026-09-04T07:23:51Z</time>
</trkpt>
<trkpt lat="46.329560000" lon="-72.794530000">
<ele>0</ele>
<time>2026-09-04T07:23:52Z</time>
</trkpt>
<trkpt lat="46.330090000" lon="-72.794640000">
<ele>0</ele>
<time>2026-09-04T07:23:53Z</time>
</trkpt>
<trkpt lat="46.330610000" lon="-72.794660000">
<ele>0</ele>
<time>2026-09-04T07:23:54Z</time>
</trkpt>
<trkpt lat="46.331210000" lon="-72.794610000">
<ele>0</ele>
<time>2026-09-04T07:23:55Z</time>
</trkpt>
<trkpt lat="46.331350000" lon="-72.794570000">
<ele>0</ele>
<time>2026-09-04T07:23:56Z</time>
</trkpt>
<trkpt lat="46.331560000" lon="-72.794500000">
<ele>0</ele>
<time>2026-09-04T07:23:57Z</time>
</trkpt>
<trkpt lat="46.331860000" lon="-72.794350000">
<ele>0</ele>
<time>2026-09-04T07:23:58Z</time>
</trkpt>
<trkpt lat="46.332200000" lon="-72.794170000">
<ele>0</ele>
<time>2026-09-04T07:23:59Z</time>
</trkpt>
<trkpt lat="46.332370000" lon="-72.794070000">
<ele>0</ele>
<time>2026-09-04T07:24:00Z</time>
</trkpt>
<trkpt lat="46.332780000" lon="-72.793900000">
<ele>0</ele>
<time>2026-09-04T07:24:01Z</time>
</trkpt>
<trkpt lat="46.332940000" lon="-72.793860000">
<ele>0</ele>
<time>2026-09-04T07:24:02Z</time>
</trkpt>
<trkpt lat="46.333430000" lon="-72.793840000">
<ele>0</ele>
<time>2026-09-04T07:24:03Z</time>
</trkpt>
<trkpt lat="46.333720000" lon="-72.793860000">
<ele>0</ele>
<time>2026-09-04T07:24:04Z</time>
</trkpt>
<trkpt lat="46.334010000" lon="-72.793940000">
<ele>0</ele>
<time>2026-09-04T07:24:05Z</time>
</trkpt>
<trkpt lat="46.334380000" lon="-72.794100000">
<ele>0</ele>
<time>2026-09-04T07:24:06Z</time>
</trkpt>
<trkpt lat="46.334820000" lon="-72.794300000">
<ele>0</ele>
<time>2026-09-04T07:24:07Z</time>
</trkpt>
<trkpt lat="46.337070000" lon="-72.795250000">
<ele>0</ele>
<time>2026-09-04T07:24:08Z</time>
</trkpt>
<trkpt lat="46.337930000" lon="-72.795620000">
<ele>0</ele>
<time>2026-09-04T07:24:09Z</time>
</trkpt>
<trkpt lat="46.338620000" lon="-72.795910000">
<ele>0</ele>
<time>2026-09-04T07:24:10Z</time>
</trkpt>
<trkpt lat="46.339510000" lon="-72.796260000">
<ele>0</ele>
<time>2026-09-04T07:24:11Z</time>
</trkpt>
<trkpt lat="46.339870000" lon="-72.796360000">
<ele>0</ele>
<time>2026-09-04T07:24:12Z</time>
</trkpt>
<trkpt lat="46.340200000" lon="-72.796400000">
<ele>0</ele>
<time>2026-09-04T07:24:13Z</time>
</trkpt>
<trkpt lat="46.340380000" lon="-72.796410000">
<ele>0</ele>
<time>2026-09-04T07:24:14Z</time>
</trkpt>
<trkpt lat="46.341110000" lon="-72.796360000">
<ele>0</ele>
<time>2026-09-04T07:24:15Z</time>
</trkpt>
<trkpt lat="46.341800000" lon="-72.796120000">
<ele>0</ele>
<time>2026-09-04T07:24:16Z</time>
</trkpt>
<trkpt lat="46.342080000" lon="-72.796000000">
<ele>0</ele>
<time>2026-09-04T07:24:17Z</time>
</trkpt>
<trkpt lat="46.342390000" lon="-72.795800000">
<ele>0</ele>
<time>2026-09-04T07:24:18Z</time>
</trkpt>
<trkpt lat="46.343800000" lon="-72.794720000">
<ele>0</ele>
<time>2026-09-04T07:24:19Z</time>
</trkpt>
<trkpt lat="46.344260000" lon="-72.794320000">
<ele>0</ele>
<time>2026-09-04T07:24:20Z</time>
</trkpt>
<trkpt lat="46.344450000" lon="-72.794120000">
<ele>0</ele>
<time>2026-09-04T07:24:21Z</time>
</trkpt>
<trkpt lat="46.344630000" lon="-72.793890000">
<ele>0</ele>
<time>2026-09-04T07:24:22Z</time>
</trkpt>
<trkpt lat="46.344870000" lon="-72.793470000">
<ele>0</ele>
<time>2026-09-04T07:24:23Z</time>
</trkpt>
<trkpt lat="46.345100000" lon="-72.792920000">
<ele>0</ele>
<time>2026-09-04T07:24:24Z</time>
</trkpt>
<trkpt lat="46.345160000" lon="-72.792740000">
<ele>0</ele>
<time>2026-09-04T07:24:25Z</time>
</trkpt>
<trkpt lat="46.345420000" lon="-72.791550000">
<ele>0</ele>
<time>2026-09-04T07:24:26Z</time>
</trkpt>
<trkpt lat="46.345720000" lon="-72.790090000">
<ele>0</ele>
<time>2026-09-04T07:24:27Z</time>
</trkpt>
<trkpt lat="46.346070000" lon="-72.790300000">
<ele>0</ele>
<time>2026-09-04T07:24:28Z</time>
</trkpt>
<trkpt lat="46.346400000" lon="-72.790580000">
<ele>0</ele>
<time>2026-09-04T07:24:29Z</time>
</trkpt>
<trkpt lat="46.346530000" lon="-72.790710000">
<ele>0</ele>
<time>2026-09-04T07:24:30Z</time>
</trkpt>
<trkpt lat="46.346660000" lon="-72.790890000">
<ele>0</ele>
<time>2026-09-04T07:24:31Z</time>
</trkpt>
<trkpt lat="46.347040000" lon="-72.791450000">
<ele>0</ele>
<time>2026-09-04T07:24:32Z</time>
</trkpt>
<trkpt lat="46.347590000" lon="-72.792360000">
<ele>0</ele>
<time>2026-09-04T07:24:33Z</time>
</trkpt>
<trkpt lat="46.348560000" lon="-72.793920000">
<ele>0</ele>
<time>2026-09-04T07:24:34Z</time>
</trkpt>
<trkpt lat="46.349100000" lon="-72.794540000">
<ele>0</ele>
<time>2026-09-04T07:24:35Z</time>
</trkpt>
<trkpt lat="46.349260000" lon="-72.794810000">
<ele>0</ele>
<time>2026-09-04T07:24:36Z</time>
</trkpt>
<trkpt lat="46.349360000" lon="-72.795050000">
<ele>0</ele>
<time>2026-09-04T07:24:37Z</time>
</trkpt>
<trkpt lat="46.349760000" lon="-72.796110000">
<ele>0</ele>
<time>2026-09-04T07:24:38Z</time>
</trkpt>
<trkpt lat="46.350180000" lon="-72.797360000">
<ele>0</ele>
<time>2026-09-04T07:24:39Z</time>
</trkpt>
<trkpt lat="46.350420000" lon="-72.798070000">
<ele>0</ele>
<time>2026-09-04T07:24:40Z</time>
</trkpt>
<trkpt lat="46.350730000" lon="-72.799040000">
<ele>0</ele>
<time>2026-09-04T07:24:41Z</time>
</trkpt>
<trkpt lat="46.351270000" lon="-72.800940000">
<ele>0</ele>
<time>2026-09-04T07:24:42Z</time>
</trkpt>
<trkpt lat="46.351580000" lon="-72.801280000">
<ele>0</ele>
<time>2026-09-04T07:24:43Z</time>
</trkpt>
<trkpt lat="46.352640000" lon="-72.802450000">
<ele>0</ele>
<time>2026-09-04T07:24:44Z</time>
</trkpt>
<trkpt lat="46.353040000" lon="-72.802780000">
<ele>0</ele>
<time>2026-09-04T07:24:45Z</time>
</trkpt>
<trkpt lat="46.353260000" lon="-72.802930000">
<ele>0</ele>
<time>2026-09-04T07:24:46Z</time>
</trkpt>
<trkpt lat="46.353460000" lon="-72.803040000">
<ele>0</ele>
<time>2026-09-04T07:24:47Z</time>
</trkpt>
<trkpt lat="46.354180000" lon="-72.803430000">
<ele>0</ele>
<time>2026-09-04T07:24:48Z</time>
</trkpt>
<trkpt lat="46.354350000" lon="-72.803500000">
<ele>0</ele>
<time>2026-09-04T07:24:49Z</time>
</trkpt>
<trkpt lat="46.354480000" lon="-72.803520000">
<ele>0</ele>
<time>2026-09-04T07:24:50Z</time>
</trkpt>
<trkpt lat="46.354750000" lon="-72.803510000">
<ele>0</ele>
<time>2026-09-04T07:24:51Z</time>
</trkpt>
<trkpt lat="46.355980000" lon="-72.803350000">
<ele>0</ele>
<time>2026-09-04T07:24:52Z</time>
</trkpt>
<trkpt lat="46.356660000" lon="-72.803250000">
<ele>0</ele>
<time>2026-09-04T07:24:53Z</time>
</trkpt>
<trkpt lat="46.357070000" lon="-72.803100000">
<ele>0</ele>
<time>2026-09-04T07:24:54Z</time>
</trkpt>
<trkpt lat="46.357380000" lon="-72.802920000">
<ele>0</ele>
<time>2026-09-04T07:24:55Z</time>
</trkpt>
<trkpt lat="46.357710000" lon="-72.802730000">
<ele>0</ele>
<time>2026-09-04T07:24:56Z</time>
</trkpt>
<trkpt lat="46.357900000" lon="-72.802620000">
<ele>0</ele>
<time>2026-09-04T07:24:57Z</time>
</trkpt>
<trkpt lat="46.358090000" lon="-72.802550000">
<ele>0</ele>
<time>2026-09-04T07:24:58Z</time>
</trkpt>
<trkpt lat="46.358220000" lon="-72.802570000">
<ele>0</ele>
<time>2026-09-04T07:24:59Z</time>
</trkpt>
<trkpt lat="46.358460000" lon="-72.802730000">
<ele>0</ele>
<time>2026-09-04T07:25:00Z</time>
</trkpt>
<trkpt lat="46.358740000" lon="-72.802920000">
<ele>0</ele>
<time>2026-09-04T07:25:01Z</time>
</trkpt>
<trkpt lat="46.359170000" lon="-72.803170000">
<ele>0</ele>
<time>2026-09-04T07:25:02Z</time>
</trkpt>
<trkpt lat="46.359490000" lon="-72.803330000">
<ele>0</ele>
<time>2026-09-04T07:25:03Z</time>
</trkpt>
<trkpt lat="46.359680000" lon="-72.803380000">
<ele>0</ele>
<time>2026-09-04T07:25:04Z</time>
</trkpt>
<trkpt lat="46.360100000" lon="-72.803380000">
<ele>0</ele>
<time>2026-09-04T07:25:05Z</time>
</trkpt>
<trkpt lat="46.360320000" lon="-72.803390000">
<ele>0</ele>
<time>2026-09-04T07:25:06Z</time>
</trkpt>
<trkpt lat="46.360450000" lon="-72.803440000">
<ele>0</ele>
<time>2026-09-04T07:25:07Z</time>
</trkpt>
<trkpt lat="46.360770000" lon="-72.803680000">
<ele>0</ele>
<time>2026-09-04T07:25:08Z</time>
</trkpt>
<trkpt lat="46.361390000" lon="-72.804200000">
<ele>0</ele>
<time>2026-09-04T07:25:09Z</time>
</trkpt>
<trkpt lat="46.361820000" lon="-72.804560000">
<ele>0</ele>
<time>2026-09-04T07:25:10Z</time>
</trkpt>
<trkpt lat="46.362030000" lon="-72.804680000">
<ele>0</ele>
<time>2026-09-04T07:25:11Z</time>
</trkpt>
<trkpt lat="46.362290000" lon="-72.804760000">
<ele>0</ele>
<time>2026-09-04T07:25:12Z</time>
</trkpt>
<trkpt lat="46.362560000" lon="-72.804790000">
<ele>0</ele>
<time>2026-09-04T07:25:13Z</time>
</trkpt>
<trkpt lat="46.363100000" lon="-72.804800000">
<ele>0</ele>
<time>2026-09-04T07:25:14Z</time>
</trkpt>
<trkpt lat="46.363480000" lon="-72.804810000">
<ele>0</ele>
<time>2026-09-04T07:25:15Z</time>
</trkpt>
<trkpt lat="46.363620000" lon="-72.804840000">
<ele>0</ele>
<time>2026-09-04T07:25:16Z</time>
</trkpt>
<trkpt lat="46.363860000" lon="-72.804920000">
<ele>0</ele>
<time>2026-09-04T07:25:17Z</time>
</trkpt>
<trkpt lat="46.363960000" lon="-72.804970000">
<ele>0</ele>
<time>2026-09-04T07:25:18Z</time>
</trkpt>
<trkpt lat="46.364010000" lon="-72.805020000">
<ele>0</ele>
<time>2026-09-04T07:25:19Z</time>
</trkpt>
<trkpt lat="46.364120000" lon="-72.805160000">
<ele>0</ele>
<time>2026-09-04T07:25:20Z</time>
</trkpt>
<trkpt lat="46.364240000" lon="-72.805370000">
<ele>0</ele>
<time>2026-09-04T07:25:21Z</time>
</trkpt>
<trkpt lat="46.364380000" lon="-72.805830000">
<ele>0</ele>
<time>2026-09-04T07:25:22Z</time>
</trkpt>
<trkpt lat="46.364450000" lon="-72.806080000">
<ele>0</ele>
<time>2026-09-04T07:25:23Z</time>
</trkpt>
<trkpt lat="46.364530000" lon="-72.806280000">
<ele>0</ele>
<time>2026-09-04T07:25:24Z</time>
</trkpt>
<trkpt lat="46.364870000" lon="-72.806990000">
<ele>0</ele>
<time>2026-09-04T07:25:25Z</time>
</trkpt>
<trkpt lat="46.365060000" lon="-72.807510000">
<ele>0</ele>
<time>2026-09-04T07:25:26Z</time>
</trkpt>
<trkpt lat="46.365670000" lon="-72.808830000">
<ele>0</ele>
<time>2026-09-04T07:25:27Z</time>
</trkpt>
<trkpt lat="46.365880000" lon="-72.809220000">
<ele>0</ele>
<time>2026-09-04T07:25:28Z</time>
</trkpt>
<trkpt lat="46.366090000" lon="-72.809470000">
<ele>0</ele>
<time>2026-09-04T07:25:29Z</time>
</trkpt>
<trkpt lat="46.366380000" lon="-72.809720000">
<ele>0</ele>
<time>2026-09-04T07:25:30Z</time>
</trkpt>
<trkpt lat="46.366440000" lon="-72.809770000">
<ele>0</ele>
<time>2026-09-04T07:25:31Z</time>
</trkpt>
<trkpt lat="46.366670000" lon="-72.809930000">
<ele>0</ele>
<time>2026-09-04T07:25:32Z</time>
</trkpt>
<trkpt lat="46.366790000" lon="-72.809970000">
<ele>0</ele>
<time>2026-09-04T07:25:33Z</time>
</trkpt>
<trkpt lat="46.366930000" lon="-72.809980000">
<ele>0</ele>
<time>2026-09-04T07:25:34Z</time>
</trkpt>
<trkpt lat="46.367260000" lon="-72.809940000">
<ele>0</ele>
<time>2026-09-04T07:25:35Z</time>
</trkpt>
<trkpt lat="46.367470000" lon="-72.809840000">
<ele>0</ele>
<time>2026-09-04T07:25:36Z</time>
</trkpt>
<trkpt lat="46.367780000" lon="-72.809850000">
<ele>0</ele>
<time>2026-09-04T07:25:37Z</time>
</trkpt>
<trkpt lat="46.367780000" lon="-72.810630000">
<ele>0</ele>
<time>2026-09-04T07:25:38Z</time>
</trkpt>
<trkpt lat="46.367770000" lon="-72.811100000">
<ele>0</ele>
<time>2026-09-04T07:25:39Z</time>
</trkpt>
<trkpt lat="46.367730000" lon="-72.811410000">
<ele>0</ele>
<time>2026-09-04T07:25:40Z</time>
</trkpt>
<trkpt lat="46.367660000" lon="-72.811690000">
<ele>0</ele>
<time>2026-09-04T07:25:41Z</time>
</trkpt>
<trkpt lat="46.367560000" lon="-72.811920000">
<ele>0</ele>
<time>2026-09-04T07:25:42Z</time>
</trkpt>
<trkpt lat="46.367050000" lon="-72.812650000">
<ele>0</ele>
<time>2026-09-04T07:25:43Z</time>
</trkpt>
<trkpt lat="46.366520000" lon="-72.813280000">
<ele>0</ele>
<time>2026-09-04T07:25:44Z</time>
</trkpt>
<trkpt lat="46.365920000" lon="-72.813990000">
<ele>0</ele>
<time>2026-09-04T07:25:45Z</time>
</trkpt>
<trkpt lat="46.365750000" lon="-72.814310000">
<ele>0</ele>
<time>2026-09-04T07:25:46Z</time>
</trkpt>
<trkpt lat="46.365640000" lon="-72.814560000">
<ele>0</ele>
<time>2026-09-04T07:25:47Z</time>
</trkpt>
<trkpt lat="46.365450000" lon="-72.815020000">
<ele>0</ele>
<time>2026-09-04T07:25:48Z</time>
</trkpt>
<trkpt lat="46.365300000" lon="-72.815260000">
<ele>0</ele>
<time>2026-09-04T07:25:49Z</time>
</trkpt>
<trkpt lat="46.364260000" lon="-72.816820000">
<ele>0</ele>
<time>2026-09-04T07:25:50Z</time>
</trkpt>
<trkpt lat="46.363590000" lon="-72.817900000">
<ele>0</ele>
<time>2026-09-04T07:25:51Z</time>
</trkpt>
<trkpt lat="46.362860000" lon="-72.819090000">
<ele>0</ele>
<time>2026-09-04T07:25:52Z</time>
</trkpt>
<trkpt lat="46.362720000" lon="-72.819340000">
<ele>0</ele>
<time>2026-09-04T07:25:53Z</time>
</trkpt>
<trkpt lat="46.362570000" lon="-72.819670000">
<ele>0</ele>
<time>2026-09-04T07:25:54Z</time>
</trkpt>
<trkpt lat="46.362480000" lon="-72.819910000">
<ele>0</ele>
<time>2026-09-04T07:25:55Z</time>
</trkpt>
<trkpt lat="46.362650000" lon="-72.819970000">
<ele>0</ele>
<time>2026-09-04T07:25:56Z</time>
</trkpt>
<trkpt lat="46.363070000" lon="-72.820100000">
<ele>0</ele>
<time>2026-09-04T07:25:57Z</time>
</trkpt>
<trkpt lat="46.363440000" lon="-72.820320000">
<ele>0</ele>
<time>2026-09-04T07:25:58Z</time>
</trkpt>
<trkpt lat="46.363890000" lon="-72.820740000">
<ele>0</ele>
<time>2026-09-04T07:25:59Z</time>
</trkpt>
<trkpt lat="46.364050000" lon="-72.820920000">
<ele>0</ele>
<time>2026-09-04T07:26:00Z</time>
</trkpt>
<trkpt lat="46.364470000" lon="-72.821780000">
<ele>0</ele>
<time>2026-09-04T07:26:01Z</time>
</trkpt>
<trkpt lat="46.364770000" lon="-72.822550000">
<ele>0</ele>
<time>2026-09-04T07:26:02Z</time>
</trkpt>
<trkpt lat="46.365440000" lon="-72.823960000">
<ele>0</ele>
<time>2026-09-04T07:26:03Z</time>
</trkpt>
<trkpt lat="46.365780000" lon="-72.824670000">
<ele>0</ele>
<time>2026-09-04T07:26:04Z</time>
</trkpt>
<trkpt lat="46.365860000" lon="-72.824790000">
<ele>0</ele>
<time>2026-09-04T07:26:05Z</time>
</trkpt>
<trkpt lat="46.365990000" lon="-72.824980000">
<ele>0</ele>
<time>2026-09-04T07:26:06Z</time>
</trkpt>
<trkpt lat="46.367890000" lon="-72.827210000">
<ele>0</ele>
<time>2026-09-04T07:26:07Z</time>
</trkpt>
<trkpt lat="46.369040000" lon="-72.828630000">
<ele>0</ele>
<time>2026-09-04T07:26:08Z</time>
</trkpt>
<trkpt lat="46.369490000" lon="-72.828120000">
<ele>0</ele>
<time>2026-09-04T07:26:09Z</time>
</trkpt>
<trkpt lat="46.370180000" lon="-72.827760000">
<ele>0</ele>
<time>2026-09-04T07:26:10Z</time>
</trkpt>
<trkpt lat="46.372030000" lon="-72.826990000">
<ele>0</ele>
<time>2026-09-04T07:26:11Z</time>
</trkpt>
<trkpt lat="46.372720000" lon="-72.826700000">
<ele>0</ele>
<time>2026-09-04T07:26:12Z</time>
</trkpt>
<trkpt lat="46.374690000" lon="-72.825870000">
<ele>0</ele>
<time>2026-09-04T07:26:13Z</time>
</trkpt>
<trkpt lat="46.375290000" lon="-72.825750000">
<ele>0</ele>
<time>2026-09-04T07:26:14Z</time>
</trkpt>
<trkpt lat="46.375880000" lon="-72.825750000">
<ele>0</ele>
<time>2026-09-04T07:26:15Z</time>
</trkpt>
<trkpt lat="46.376240000" lon="-72.825780000">
<ele>0</ele>
<time>2026-09-04T07:26:16Z</time>
</trkpt>
<trkpt lat="46.376590000" lon="-72.825810000">
<ele>0</ele>
<time>2026-09-04T07:26:17Z</time>
</trkpt>
<trkpt lat="46.378570000" lon="-72.826030000">
<ele>0</ele>
<time>2026-09-04T07:26:18Z</time>
</trkpt>
<trkpt lat="46.379640000" lon="-72.826190000">
<ele>0</ele>
<time>2026-09-04T07:26:19Z</time>
</trkpt>
<trkpt lat="46.379860000" lon="-72.826230000">
<ele>0</ele>
<time>2026-09-04T07:26:20Z</time>
</trkpt>
<trkpt lat="46.380340000" lon="-72.826440000">
<ele>0</ele>
<time>2026-09-04T07:26:21Z</time>
</trkpt>
<trkpt lat="46.382060000" lon="-72.827200000">
<ele>0</ele>
<time>2026-09-04T07:26:22Z</time>
</trkpt>
<trkpt lat="46.383700000" lon="-72.827910000">
<ele>0</ele>
<time>2026-09-04T07:26:23Z</time>
</trkpt>
<trkpt lat="46.383870000" lon="-72.827940000">
<ele>0</ele>
<time>2026-09-04T07:26:24Z</time>
</trkpt>
<trkpt lat="46.383870000" lon="-72.827940000">
<ele>0</ele>
<time>2026-09-04T07:26:25Z</time>
</trkpt>
<trkpt lat="46.384780000" lon="-72.828080000">
<ele>0</ele>
<time>2026-09-04T07:26:26Z</time>
</trkpt>
<trkpt lat="46.386130000" lon="-72.828180000">
<ele>0</ele>
<time>2026-09-04T07:26:27Z</time>
</trkpt>
<trkpt lat="46.387160000" lon="-72.828260000">
<ele>0</ele>
<time>2026-09-04T07:26:28Z</time>
</trkpt>
<trkpt lat="46.387410000" lon="-72.828380000">
<ele>0</ele>
<time>2026-09-04T07:26:29Z</time>
</trkpt>
<trkpt lat="46.387710000" lon="-72.828570000">
<ele>0</ele>
<time>2026-09-04T07:26:30Z</time>
</trkpt>
<trkpt lat="46.387860000" lon="-72.828700000">
<ele>0</ele>
<time>2026-09-04T07:26:31Z</time>
</trkpt>
<trkpt lat="46.388210000" lon="-72.829020000">
<ele>0</ele>
<time>2026-09-04T07:26:32Z</time>
</trkpt>
<trkpt lat="46.388500000" lon="-72.829530000">
<ele>0</ele>
<time>2026-09-04T07:26:33Z</time>
</trkpt>
<trkpt lat="46.388680000" lon="-72.829990000">
<ele>0</ele>
<time>2026-09-04T07:26:34Z</time>
</trkpt>
<trkpt lat="46.389100000" lon="-72.830880000">
<ele>0</ele>
<time>2026-09-04T07:26:35Z</time>
</trkpt>
<trkpt lat="46.389200000" lon="-72.831100000">
<ele>0</ele>
<time>2026-09-04T07:26:36Z</time>
</trkpt>
<trkpt lat="46.389380000" lon="-72.831550000">
<ele>0</ele>
<time>2026-09-04T07:26:37Z</time>
</trkpt>
<trkpt lat="46.390270000" lon="-72.833810000">
<ele>0</ele>
<time>2026-09-04T07:26:38Z</time>
</trkpt>
<trkpt lat="46.391090000" lon="-72.835890000">
<ele>0</ele>
<time>2026-09-04T07:26:39Z</time>
</trkpt>
<trkpt lat="46.391550000" lon="-72.837440000">
<ele>0</ele>
<time>2026-09-04T07:26:40Z</time>
</trkpt>
<trkpt lat="46.391690000" lon="-72.838020000">
<ele>0</ele>
<time>2026-09-04T07:26:41Z</time>
</trkpt>
<trkpt lat="46.392070000" lon="-72.839660000">
<ele>0</ele>
<time>2026-09-04T07:26:42Z</time>
</trkpt>
<trkpt lat="46.392110000" lon="-72.840050000">
<ele>0</ele>
<time>2026-09-04T07:26:43Z</time>
</trkpt>
<trkpt lat="46.392230000" lon="-72.840500000">
<ele>0</ele>
<time>2026-09-04T07:26:44Z</time>
</trkpt>
<trkpt lat="46.392300000" lon="-72.840740000">
<ele>0</ele>
<time>2026-09-04T07:26:45Z</time>
</trkpt>
<trkpt lat="46.392460000" lon="-72.841240000">
<ele>0</ele>
<time>2026-09-04T07:26:46Z</time>
</trkpt>
<trkpt lat="46.392600000" lon="-72.841700000">
<ele>0</ele>
<time>2026-09-04T07:26:47Z</time>
</trkpt>
<trkpt lat="46.392600000" lon="-72.841700000">
<ele>0</ele>
<time>2026-09-04T07:26:48Z</time>
</trkpt>
<trkpt lat="46.393710000" lon="-72.845260000">
<ele>0</ele>
<time>2026-09-04T07:26:49Z</time>
</trkpt>
<trkpt lat="46.393830000" lon="-72.845770000">
<ele>0</ele>
<time>2026-09-04T07:26:50Z</time>
</trkpt>
<trkpt lat="46.393930000" lon="-72.846250000">
<ele>0</ele>
<time>2026-09-04T07:26:51Z</time>
</trkpt>
<trkpt lat="46.393960000" lon="-72.846500000">
<ele>0</ele>
<time>2026-09-04T07:26:52Z</time>
</trkpt>
<trkpt lat="46.393960000" lon="-72.849610000">
<ele>0</ele>
<time>2026-09-04T07:26:53Z</time>
</trkpt>
<trkpt lat="46.394010000" lon="-72.850440000">
<ele>0</ele>
<time>2026-09-04T07:26:54Z</time>
</trkpt>
<trkpt lat="46.394040000" lon="-72.850670000">
<ele>0</ele>
<time>2026-09-04T07:26:55Z</time>
</trkpt>
<trkpt lat="46.394260000" lon="-72.852200000">
<ele>0</ele>
<time>2026-09-04T07:26:56Z</time>
</trkpt>
<trkpt lat="46.394970000" lon="-72.857010000">
<ele>0</ele>
<time>2026-09-04T07:26:57Z</time>
</trkpt>
<trkpt lat="46.395610000" lon="-72.859600000">
<ele>0</ele>
<time>2026-09-04T07:26:58Z</time>
</trkpt>
<trkpt lat="46.395850000" lon="-72.860430000">
<ele>0</ele>
<time>2026-09-04T07:26:59Z</time>
</trkpt>
<trkpt lat="46.396050000" lon="-72.860940000">
<ele>0</ele>
<time>2026-09-04T07:27:00Z</time>
</trkpt>
<trkpt lat="46.396320000" lon="-72.861320000">
<ele>0</ele>
<time>2026-09-04T07:27:01Z</time>
</trkpt>
<trkpt lat="46.396490000" lon="-72.861620000">
<ele>0</ele>
<time>2026-09-04T07:27:02Z</time>
</trkpt>
<trkpt lat="46.397140000" lon="-72.862500000">
<ele>0</ele>
<time>2026-09-04T07:27:03Z</time>
</trkpt>
<trkpt lat="46.398060000" lon="-72.863880000">
<ele>0</ele>
<time>2026-09-04T07:27:04Z</time>
</trkpt>
<trkpt lat="46.398310000" lon="-72.864250000">
<ele>0</ele>
<time>2026-09-04T07:27:05Z</time>
</trkpt>
<trkpt lat="46.398820000" lon="-72.865000000">
<ele>0</ele>
<time>2026-09-04T07:27:06Z</time>
</trkpt>
<trkpt lat="46.399350000" lon="-72.865700000">
<ele>0</ele>
<time>2026-09-04T07:27:07Z</time>
</trkpt>
<trkpt lat="46.399800000" lon="-72.866270000">
<ele>0</ele>
<time>2026-09-04T07:27:08Z</time>
</trkpt>
<trkpt lat="46.400040000" lon="-72.866650000">
<ele>0</ele>
<time>2026-09-04T07:27:09Z</time>
</trkpt>
<trkpt lat="46.401070000" lon="-72.868180000">
<ele>0</ele>
<time>2026-09-04T07:27:10Z</time>
</trkpt>
<trkpt lat="46.401660000" lon="-72.869070000">
<ele>0</ele>
<time>2026-09-04T07:27:11Z</time>
</trkpt>
<trkpt lat="46.401820000" lon="-72.869310000">
<ele>0</ele>
<time>2026-09-04T07:27:12Z</time>
</trkpt>
<trkpt lat="46.402060000" lon="-72.869680000">
<ele>0</ele>
<time>2026-09-04T07:27:13Z</time>
</trkpt>
<trkpt lat="46.401970000" lon="-72.869820000">
<ele>0</ele>
<time>2026-09-04T07:27:14Z</time>
</trkpt>
<trkpt lat="46.401970000" lon="-72.869820000">
<ele>0</ele>
<time>2026-09-04T07:27:15Z</time>
</trkpt>
<trkpt lat="46.400980000" lon="-72.871270000">
<ele>0</ele>
<time>2026-09-04T07:27:16Z</time>
</trkpt>
<trkpt lat="46.400910000" lon="-72.871500000">
<ele>0</ele>
<time>2026-09-04T07:27:17Z</time>
</trkpt>
<trkpt lat="46.400650000" lon="-72.871720000">
<ele>0</ele>
<time>2026-09-04T07:27:18Z</time>
</trkpt>
<trkpt lat="46.400340000" lon="-72.872060000">
<ele>0</ele>
<time>2026-09-04T07:27:19Z</time>
</trkpt>
<trkpt lat="46.399770000" lon="-72.872860000">
<ele>0</ele>
<time>2026-09-04T07:27:20Z</time>
</trkpt>
<trkpt lat="46.398460000" lon="-72.874670000">
<ele>0</ele>
<time>2026-09-04T07:27:21Z</time>
</trkpt>
<trkpt lat="46.396390000" lon="-72.877560000">
<ele>0</ele>
<time>2026-09-04T07:27:22Z</time>
</trkpt>
<trkpt lat="46.395230000" lon="-72.879210000">
<ele>0</ele>
<time>2026-09-04T07:27:23Z</time>
</trkpt>
<trkpt lat="46.394740000" lon="-72.880270000">
<ele>0</ele>
<time>2026-09-04T07:27:24Z</time>
</trkpt>
<trkpt lat="46.394650000" lon="-72.880410000">
<ele>0</ele>
<time>2026-09-04T07:27:25Z</time>
</trkpt>
<trkpt lat="46.394560000" lon="-72.880470000">
<ele>0</ele>
<time>2026-09-04T07:27:26Z</time>
</trkpt>
<trkpt lat="46.394460000" lon="-72.880500000">
<ele>0</ele>
<time>2026-09-04T07:27:27Z</time>
</trkpt>
<trkpt lat="46.394380000" lon="-72.880510000">
<ele>0</ele>
<time>2026-09-04T07:27:28Z</time>
</trkpt>
<trkpt lat="46.394320000" lon="-72.880500000">
<ele>0</ele>
<time>2026-09-04T07:27:29Z</time>
</trkpt>
<trkpt lat="46.394180000" lon="-72.880700000">
<ele>0</ele>
<time>2026-09-04T07:27:30Z</time>
</trkpt>
<trkpt lat="46.394180000" lon="-72.880700000">
<ele>0</ele>
<time>2026-09-04T07:27:31Z</time>
</trkpt>
<trkpt lat="46.391120000" lon="-72.885070000">
<ele>0</ele>
<time>2026-09-04T07:27:32Z</time>
</trkpt>
<trkpt lat="46.390490000" lon="-72.886010000">
<ele>0</ele>
<time>2026-09-04T07:27:33Z</time>
</trkpt>
<trkpt lat="46.390370000" lon="-72.886200000">
<ele>0</ele>
<time>2026-09-04T07:27:34Z</time>
</trkpt>
<trkpt lat="46.389640000" lon="-72.887350000">
<ele>0</ele>
<time>2026-09-04T07:27:35Z</time>
</trkpt>
<trkpt lat="46.389380000" lon="-72.887710000">
<ele>0</ele>
<time>2026-09-04T07:27:36Z</time>
</trkpt>
<trkpt lat="46.388160000" lon="-72.889260000">
<ele>0</ele>
<time>2026-09-04T07:27:37Z</time>
</trkpt>
<trkpt lat="46.387460000" lon="-72.890070000">
<ele>0</ele>
<time>2026-09-04T07:27:38Z</time>
</trkpt>
<trkpt lat="46.383770000" lon="-72.894430000">
<ele>0</ele>
<time>2026-09-04T07:27:39Z</time>
</trkpt>
<trkpt lat="46.382650000" lon="-72.895740000">
<ele>0</ele>
<time>2026-09-04T07:27:40Z</time>
</trkpt>
<trkpt lat="46.381110000" lon="-72.897550000">
<ele>0</ele>
<time>2026-09-04T07:27:41Z</time>
</trkpt>
<trkpt lat="46.380880000" lon="-72.897840000">
<ele>0</ele>
<time>2026-09-04T07:27:42Z</time>
</trkpt>
<trkpt lat="46.380700000" lon="-72.898050000">
<ele>0</ele>
<time>2026-09-04T07:27:43Z</time>
</trkpt>
<trkpt lat="46.380500000" lon="-72.898320000">
<ele>0</ele>
<time>2026-09-04T07:27:44Z</time>
</trkpt>
<trkpt lat="46.380190000" lon="-72.898790000">
<ele>0</ele>
<time>2026-09-04T07:27:45Z</time>
</trkpt>
<trkpt lat="46.379530000" lon="-72.899670000">
<ele>0</ele>
<time>2026-09-04T07:27:46Z</time>
</trkpt>
<trkpt lat="46.379170000" lon="-72.900250000">
<ele>0</ele>
<time>2026-09-04T07:27:47Z</time>
</trkpt>
<trkpt lat="46.379060000" lon="-72.900450000">
<ele>0</ele>
<time>2026-09-04T07:27:48Z</time>
</trkpt>
<trkpt lat="46.378340000" lon="-72.901620000">
<ele>0</ele>
<time>2026-09-04T07:27:49Z</time>
</trkpt>
<trkpt lat="46.378220000" lon="-72.901460000">
<ele>0</ele>
<time>2026-09-04T07:27:50Z</time>
</trkpt>
<trkpt lat="46.378220000" lon="-72.901460000">
<ele>0</ele>
<time>2026-09-04T07:27:51Z</time>
</trkpt>
<trkpt lat="46.377420000" lon="-72.900380000">
<ele>0</ele>
<time>2026-09-04T07:27:52Z</time>
</trkpt>
<trkpt lat="46.377250000" lon="-72.900160000">
<ele>0</ele>
<time>2026-09-04T07:27:53Z</time>
</trkpt>
<trkpt lat="46.376900000" lon="-72.899580000">
<ele>0</ele>
<time>2026-09-04T07:27:54Z</time>
</trkpt>
<trkpt lat="46.376440000" lon="-72.898860000">
<ele>0</ele>
<time>2026-09-04T07:27:55Z</time>
</trkpt>
<trkpt lat="46.375700000" lon="-72.897720000">
<ele>0</ele>
<time>2026-09-04T07:27:56Z</time>
</trkpt>
<trkpt lat="46.375560000" lon="-72.897500000">
<ele>0</ele>
<time>2026-09-04T07:27:57Z</time>
</trkpt>
<trkpt lat="46.375430000" lon="-72.897360000">
<ele>0</ele>
<time>2026-09-04T07:27:58Z</time>
</trkpt>
<trkpt lat="46.374860000" lon="-72.896740000">
<ele>0</ele>
<time>2026-09-04T07:27:59Z</time>
</trkpt>
<trkpt lat="46.374590000" lon="-72.896450000">
<ele>0</ele>
<time>2026-09-04T07:28:00Z</time>
</trkpt>
<trkpt lat="46.373410000" lon="-72.895710000">
<ele>0</ele>
<time>2026-09-04T07:28:01Z</time>
</trkpt>
<trkpt lat="46.372420000" lon="-72.895080000">
<ele>0</ele>
<time>2026-09-04T07:28:02Z</time>
</trkpt>
<trkpt lat="46.371780000" lon="-72.894610000">
<ele>0</ele>
<time>2026-09-04T07:28:03Z</time>
</trkpt>
<trkpt lat="46.371630000" lon="-72.894470000">
<ele>0</ele>
<time>2026-09-04T07:28:04Z</time>
</trkpt>
<trkpt lat="46.371180000" lon="-72.894000000">
<ele>0</ele>
<time>2026-09-04T07:28:05Z</time>
</trkpt>
<trkpt lat="46.369800000" lon="-72.891970000">
<ele>0</ele>
<time>2026-09-04T07:28:06Z</time>
</trkpt>
<trkpt lat="46.369290000" lon="-72.891230000">
<ele>0</ele>
<time>2026-09-04T07:28:07Z</time>
</trkpt>
<trkpt lat="46.368920000" lon="-72.890670000">
<ele>0</ele>
<time>2026-09-04T07:28:08Z</time>
</trkpt>
<trkpt lat="46.367540000" lon="-72.888610000">
<ele>0</ele>
<time>2026-09-04T07:28:09Z</time>
</trkpt>
<trkpt lat="46.366650000" lon="-72.887260000">
<ele>0</ele>
<time>2026-09-04T07:28:10Z</time>
</trkpt>
<trkpt lat="46.366650000" lon="-72.887260000">
<ele>0</ele>
<time>2026-09-04T07:28:11Z</time>
</trkpt>
<trkpt lat="46.365990000" lon="-72.886260000">
<ele>0</ele>
<time>2026-09-04T07:28:12Z</time>
</trkpt>
<trkpt lat="46.365490000" lon="-72.885540000">
<ele>0</ele>
<time>2026-09-04T07:28:13Z</time>
</trkpt>
<trkpt lat="46.364080000" lon="-72.883520000">
<ele>0</ele>
<time>2026-09-04T07:28:14Z</time>
</trkpt>
<trkpt lat="46.363020000" lon="-72.882130000">
<ele>0</ele>
<time>2026-09-04T07:28:15Z</time>
</trkpt>
<trkpt lat="46.362480000" lon="-72.881430000">
<ele>0</ele>
<time>2026-09-04T07:28:16Z</time>
</trkpt>
<trkpt lat="46.361810000" lon="-72.880670000">
<ele>0</ele>
<time>2026-09-04T07:28:17Z</time>
</trkpt>
<trkpt lat="46.361630000" lon="-72.880530000">
<ele>0</ele>
<time>2026-09-04T07:28:18Z</time>
</trkpt>
<trkpt lat="46.361430000" lon="-72.880450000">
<ele>0</ele>
<time>2026-09-04T07:28:19Z</time>
</trkpt>
<trkpt lat="46.361250000" lon="-72.880420000">
<ele>0</ele>
<time>2026-09-04T07:28:20Z</time>
</trkpt>
<trkpt lat="46.361060000" lon="-72.880420000">
<ele>0</ele>
<time>2026-09-04T07:28:21Z</time>
</trkpt>
<trkpt lat="46.361060000" lon="-72.880420000">
<ele>0</ele>
<time>2026-09-04T07:28:22Z</time>
</trkpt>
<trkpt lat="46.360860000" lon="-72.880420000">
<ele>0</ele>
<time>2026-09-04T07:28:23Z</time>
</trkpt>
<trkpt lat="46.360720000" lon="-72.880460000">
<ele>0</ele>
<time>2026-09-04T07:28:24Z</time>
</trkpt>
<trkpt lat="46.360560000" lon="-72.880510000">
<ele>0</ele>
<time>2026-09-04T07:28:25Z</time>
</trkpt>
<trkpt lat="46.360340000" lon="-72.880630000">
<ele>0</ele>
<time>2026-09-04T07:28:26Z</time>
</trkpt>
<trkpt lat="46.360060000" lon="-72.880900000">
<ele>0</ele>
<time>2026-09-04T07:28:27Z</time>
</trkpt>
<trkpt lat="46.359820000" lon="-72.881270000">
<ele>0</ele>
<time>2026-09-04T07:28:28Z</time>
</trkpt>
<trkpt lat="46.358970000" lon="-72.882610000">
<ele>0</ele>
<time>2026-09-04T07:28:29Z</time>
</trkpt>
<trkpt lat="46.357580000" lon="-72.884650000">
<ele>0</ele>
<time>2026-09-04T07:28:30Z</time>
</trkpt>
<trkpt lat="46.355310000" lon="-72.887990000">
<ele>0</ele>
<time>2026-09-04T07:28:31Z</time>
</trkpt>
<trkpt lat="46.350900000" lon="-72.894510000">
<ele>0</ele>
<time>2026-09-04T07:28:32Z</time>
</trkpt>
<trkpt lat="46.348920000" lon="-72.897450000">
<ele>0</ele>
<time>2026-09-04T07:28:33Z</time>
</trkpt>
<trkpt lat="46.347400000" lon="-72.899700000">
<ele>0</ele>
<time>2026-09-04T07:28:34Z</time>
</trkpt>
<trkpt lat="46.347180000" lon="-72.900030000">
<ele>0</ele>
<time>2026-09-04T07:28:35Z</time>
</trkpt>
<trkpt lat="46.347090000" lon="-72.899900000">
<ele>0</ele>
<time>2026-09-04T07:28:36Z</time>
</trkpt>
<trkpt lat="46.347090000" lon="-72.899900000">
<ele>0</ele>
<time>2026-09-04T07:28:37Z</time>
</trkpt>
<trkpt lat="46.345170000" lon="-72.897100000">
<ele>0</ele>
<time>2026-09-04T07:28:38Z</time>
</trkpt>
<trkpt lat="46.344310000" lon="-72.895810000">
<ele>0</ele>
<time>2026-09-04T07:28:39Z</time>
</trkpt>
<trkpt lat="46.343600000" lon="-72.894840000">
<ele>0</ele>
<time>2026-09-04T07:28:40Z</time>
</trkpt>
<trkpt lat="46.341440000" lon="-72.891820000">
<ele>0</ele>
<time>2026-09-04T07:28:41Z</time>
</trkpt>
<trkpt lat="46.340720000" lon="-72.890820000">
<ele>0</ele>
<time>2026-09-04T07:28:42Z</time>
</trkpt>
<trkpt lat="46.338330000" lon="-72.887480000">
<ele>0</ele>
<time>2026-09-04T07:28:43Z</time>
</trkpt>
<trkpt lat="46.336970000" lon="-72.885580000">
<ele>0</ele>
<time>2026-09-04T07:28:44Z</time>
</trkpt>
<trkpt lat="46.335660000" lon="-72.883790000">
<ele>0</ele>
<time>2026-09-04T07:28:45Z</time>
</trkpt>
<trkpt lat="46.335130000" lon="-72.883090000">
<ele>0</ele>
<time>2026-09-04T07:28:46Z</time>
</trkpt>
<trkpt lat="46.335100000" lon="-72.883050000">
<ele>0</ele>
<time>2026-09-04T07:28:47Z</time>
</trkpt>
<trkpt lat="46.334970000" lon="-72.883030000">
<ele>0</ele>
<time>2026-09-04T07:28:48Z</time>
</trkpt>
<trkpt lat="46.334830000" lon="-72.883020000">
<ele>0</ele>
<time>2026-09-04T07:28:49Z</time>
</trkpt>
<trkpt lat="46.334780000" lon="-72.883040000">
<ele>0</ele>
<time>2026-09-04T07:28:50Z</time>
</trkpt>
<trkpt lat="46.334580000" lon="-72.883130000">
<ele>0</ele>
<time>2026-09-04T07:28:51Z</time>
</trkpt>
<trkpt lat="46.334430000" lon="-72.883310000">
<ele>0</ele>
<time>2026-09-04T07:28:52Z</time>
</trkpt>
<trkpt lat="46.334300000" lon="-72.883560000">
<ele>0</ele>
<time>2026-09-04T07:28:53Z</time>
</trkpt>
<trkpt lat="46.333810000" lon="-72.884950000">
<ele>0</ele>
<time>2026-09-04T07:28:54Z</time>
</trkpt>
<trkpt lat="46.333620000" lon="-72.885310000">
<ele>0</ele>
<time>2026-09-04T07:28:55Z</time>
</trkpt>
<trkpt lat="46.333460000" lon="-72.885470000">
<ele>0</ele>
<time>2026-09-04T07:28:56Z</time>
</trkpt>
<trkpt lat="46.333240000" lon="-72.885530000">
<ele>0</ele>
<time>2026-09-04T07:28:57Z</time>
</trkpt>
<trkpt lat="46.333030000" lon="-72.885500000">
<ele>0</ele>
<time>2026-09-04T07:28:58Z</time>
</trkpt>
<trkpt lat="46.332850000" lon="-72.885380000">
<ele>0</ele>
<time>2026-09-04T07:28:59Z</time>
</trkpt>
<trkpt lat="46.332420000" lon="-72.884810000">
<ele>0</ele>
<time>2026-09-04T07:29:00Z</time>
</trkpt>
<trkpt lat="46.331500000" lon="-72.883520000">
<ele>0</ele>
<time>2026-09-04T07:29:01Z</time>
</trkpt>
<trkpt lat="46.331110000" lon="-72.882980000">
<ele>0</ele>
<time>2026-09-04T07:29:02Z</time>
</trkpt>
<trkpt lat="46.331110000" lon="-72.882980000">
<ele>0</ele>
<time>2026-09-04T07:29:03Z</time>
</trkpt>
<trkpt lat="46.325970000" lon="-72.875860000">
<ele>0</ele>
<time>2026-09-04T07:29:04Z</time>
</trkpt>
<trkpt lat="46.323120000" lon="-72.871890000">
<ele>0</ele>
<time>2026-09-04T07:29:05Z</time>
</trkpt>
<trkpt lat="46.320340000" lon="-72.868010000">
<ele>0</ele>
<time>2026-09-04T07:29:06Z</time>
</trkpt>
<trkpt lat="46.319170000" lon="-72.866400000">
<ele>0</ele>
<time>2026-09-04T07:29:07Z</time>
</trkpt>
<trkpt lat="46.318590000" lon="-72.865570000">
<ele>0</ele>
<time>2026-09-04T07:29:08Z</time>
</trkpt>
<trkpt lat="46.318500000" lon="-72.865680000">
<ele>0</ele>
<time>2026-09-04T07:29:09Z</time>
</trkpt>
<trkpt lat="46.318500000" lon="-72.865680000">
<ele>0</ele>
<time>2026-09-04T07:29:10Z</time>
</trkpt>
<trkpt lat="46.316820000" lon="-72.867910000">
<ele>0</ele>
<time>2026-09-04T07:29:11Z</time>
</trkpt>
<trkpt lat="46.316820000" lon="-72.867910000">
<ele>0</ele>
<time>2026-09-04T07:29:12Z</time>
</trkpt>
<trkpt lat="46.316340000" lon="-72.868590000">
<ele>0</ele>
<time>2026-09-04T07:29:13Z</time>
</trkpt>
<trkpt lat="46.316180000" lon="-72.868840000">
<ele>0</ele>
<time>2026-09-04T07:29:14Z</time>
</trkpt>
<trkpt lat="46.315860000" lon="-72.869500000">
<ele>0</ele>
<time>2026-09-04T07:29:15Z</time>
</trkpt>
<trkpt lat="46.315550000" lon="-72.870200000">
<ele>0</ele>
<time>2026-09-04T07:29:16Z</time>
</trkpt>
<trkpt lat="46.314400000" lon="-72.872920000">
<ele>0</ele>
<time>2026-09-04T07:29:17Z</time>
</trkpt>
<trkpt lat="46.314020000" lon="-72.873810000">
<ele>0</ele>
<time>2026-09-04T07:29:18Z</time>
</trkpt>
<trkpt lat="46.313880000" lon="-72.874150000">
<ele>0</ele>
<time>2026-09-04T07:29:19Z</time>
</trkpt>
<trkpt lat="46.313140000" lon="-72.876550000">
<ele>0</ele>
<time>2026-09-04T07:29:20Z</time>
</trkpt>
<trkpt lat="46.313000000" lon="-72.877140000">
<ele>0</ele>
<time>2026-09-04T07:29:21Z</time>
</trkpt>
<trkpt lat="46.312950000" lon="-72.877440000">
<ele>0</ele>
<time>2026-09-04T07:29:22Z</time>
</trkpt>
<trkpt lat="46.312890000" lon="-72.877820000">
<ele>0</ele>
<time>2026-09-04T07:29:23Z</time>
</trkpt>
<trkpt lat="46.312650000" lon="-72.879420000">
<ele>0</ele>
<time>2026-09-04T07:29:24Z</time>
</trkpt>
<trkpt lat="46.312410000" lon="-72.881220000">
<ele>0</ele>
<time>2026-09-04T07:29:25Z</time>
</trkpt>
<trkpt lat="46.312270000" lon="-72.883020000">
<ele>0</ele>
<time>2026-09-04T07:29:26Z</time>
</trkpt>
<trkpt lat="46.312180000" lon="-72.884160000">
<ele>0</ele>
<time>2026-09-04T07:29:27Z</time>
</trkpt>
<trkpt lat="46.311990000" lon="-72.885060000">
<ele>0</ele>
<time>2026-09-04T07:29:28Z</time>
</trkpt>
<trkpt lat="46.311650000" lon="-72.886640000">
<ele>0</ele>
<time>2026-09-04T07:29:29Z</time>
</trkpt>
<trkpt lat="46.311230000" lon="-72.888310000">
<ele>0</ele>
<time>2026-09-04T07:29:30Z</time>
</trkpt>
<trkpt lat="46.309640000" lon="-72.894890000">
<ele>0</ele>
<time>2026-09-04T07:29:31Z</time>
</trkpt>
<trkpt lat="46.309600000" lon="-72.895070000">
<ele>0</ele>
<time>2026-09-04T07:29:32Z</time>
</trkpt>
<trkpt lat="46.309510000" lon="-72.895550000">
<ele>0</ele>
<time>2026-09-04T07:29:33Z</time>
</trkpt>
<trkpt lat="46.309340000" lon="-72.896130000">
<ele>0</ele>
<time>2026-09-04T07:29:34Z</time>
</trkpt>
<trkpt lat="46.309050000" lon="-72.897280000">
<ele>0</ele>
<time>2026-09-04T07:29:35Z</time>
</trkpt>
<trkpt lat="46.308840000" lon="-72.898210000">
<ele>0</ele>
<time>2026-09-04T07:29:36Z</time>
</trkpt>
<trkpt lat="46.308650000" lon="-72.898800000">
<ele>0</ele>
<time>2026-09-04T07:29:37Z</time>
</trkpt>
<trkpt lat="46.308530000" lon="-72.898700000">
<ele>0</ele>
<time>2026-09-04T07:29:38Z</time>
</trkpt>
<trkpt lat="46.308530000" lon="-72.898700000">
<ele>0</ele>
<time>2026-09-04T07:29:39Z</time>
</trkpt>
<trkpt lat="46.307710000" lon="-72.898010000">
<ele>0</ele>
<time>2026-09-04T07:29:40Z</time>
</trkpt>
<trkpt lat="46.306750000" lon="-72.897250000">
<ele>0</ele>
<time>2026-09-04T07:29:41Z</time>
</trkpt>
<trkpt lat="46.306570000" lon="-72.897130000">
<ele>0</ele>
<time>2026-09-04T07:29:42Z</time>
</trkpt>
<trkpt lat="46.306400000" lon="-72.897060000">
<ele>0</ele>
<time>2026-09-04T07:29:43Z</time>
</trkpt>
<trkpt lat="46.306220000" lon="-72.897030000">
<ele>0</ele>
<time>2026-09-04T07:29:44Z</time>
</trkpt>
<trkpt lat="46.306040000" lon="-72.897030000">
<ele>0</ele>
<time>2026-09-04T07:29:45Z</time>
</trkpt>
<trkpt lat="46.305760000" lon="-72.897080000">
<ele>0</ele>
<time>2026-09-04T07:29:46Z</time>
</trkpt>
<trkpt lat="46.304550000" lon="-72.897350000">
<ele>0</ele>
<time>2026-09-04T07:29:47Z</time>
</trkpt>
<trkpt lat="46.303840000" lon="-72.897580000">
<ele>0</ele>
<time>2026-09-04T07:29:48Z</time>
</trkpt>
<trkpt lat="46.303540000" lon="-72.897750000">
<ele>0</ele>
<time>2026-09-04T07:29:49Z</time>
</trkpt>
<trkpt lat="46.303410000" lon="-72.897850000">
<ele>0</ele>
<time>2026-09-04T07:29:50Z</time>
</trkpt>
<trkpt lat="46.303180000" lon="-72.898050000">
<ele>0</ele>
<time>2026-09-04T07:29:51Z</time>
</trkpt>
<trkpt lat="46.302650000" lon="-72.898660000">
<ele>0</ele>
<time>2026-09-04T07:29:52Z</time>
</trkpt>
<trkpt lat="46.302250000" lon="-72.899070000">
<ele>0</ele>
<time>2026-09-04T07:29:53Z</time>
</trkpt>
<trkpt lat="46.300860000" lon="-72.900730000">
<ele>0</ele>
<time>2026-09-04T07:29:54Z</time>
</trkpt>
<trkpt lat="46.299490000" lon="-72.902470000">
<ele>0</ele>
<time>2026-09-04T07:29:55Z</time>
</trkpt>
<trkpt lat="46.299180000" lon="-72.903060000">
<ele>0</ele>
<time>2026-09-04T07:29:56Z</time>
</trkpt>
<trkpt lat="46.298970000" lon="-72.903490000">
<ele>0</ele>
<time>2026-09-04T07:29:57Z</time>
</trkpt>
<trkpt lat="46.298800000" lon="-72.903850000">
<ele>0</ele>
<time>2026-09-04T07:29:58Z</time>
</trkpt>
<trkpt lat="46.298640000" lon="-72.904100000">
<ele>0</ele>
<time>2026-09-04T07:29:59Z</time>
</trkpt>
<trkpt lat="46.298360000" lon="-72.904460000">
<ele>0</ele>
<time>2026-09-04T07:30:00Z</time>
</trkpt>
<trkpt lat="46.297790000" lon="-72.905070000">
<ele>0</ele>
<time>2026-09-04T07:30:01Z</time>
</trkpt>
<trkpt lat="46.297350000" lon="-72.905520000">
<ele>0</ele>
<time>2026-09-04T07:30:02Z</time>
</trkpt>
<trkpt lat="46.296640000" lon="-72.906200000">
<ele>0</ele>
<time>2026-09-04T07:30:03Z</time>
</trkpt>
<trkpt lat="46.296440000" lon="-72.906350000">
<ele>0</ele>
<time>2026-09-04T07:30:04Z</time>
</trkpt>
<trkpt lat="46.296250000" lon="-72.906460000">
<ele>0</ele>
<time>2026-09-04T07:30:05Z</time>
</trkpt>
<trkpt lat="46.296100000" lon="-72.906520000">
<ele>0</ele>
<time>2026-09-04T07:30:06Z</time>
</trkpt>
<trkpt lat="46.295920000" lon="-72.906560000">
<ele>0</ele>
<time>2026-09-04T07:30:07Z</time>
</trkpt>
<trkpt lat="46.295970000" lon="-72.906620000">
<ele>0</ele>
<time>2026-09-04T07:30:08Z</time>
</trkpt>
<trkpt lat="46.295990000" lon="-72.906700000">
<ele>0</ele>
<time>2026-09-04T07:30:09Z</time>
</trkpt>
<trkpt lat="46.295980000" lon="-72.906830000">
<ele>0</ele>
<time>2026-09-04T07:30:10Z</time>
</trkpt>
<trkpt lat="46.295980000" lon="-72.906830000">
<ele>0</ele>
<time>2026-09-04T07:30:11Z</time>
</trkpt>
<trkpt lat="46.295690000" lon="-72.908110000">
<ele>0</ele>
<time>2026-09-04T07:30:12Z</time>
</trkpt>
<trkpt lat="46.295650000" lon="-72.908530000">
<ele>0</ele>
<time>2026-09-04T07:30:13Z</time>
</trkpt>
<trkpt lat="46.295670000" lon="-72.908790000">
<ele>0</ele>
<time>2026-09-04T07:30:14Z</time>
</trkpt>
<trkpt lat="46.295700000" lon="-72.909050000">
<ele>0</ele>
<time>2026-09-04T07:30:15Z</time>
</trkpt>
<trkpt lat="46.295760000" lon="-72.909290000">
<ele>0</ele>
<time>2026-09-04T07:30:16Z</time>
</trkpt>
<trkpt lat="46.295840000" lon="-72.909530000">
<ele>0</ele>
<time>2026-09-04T07:30:17Z</time>
</trkpt>
<trkpt lat="46.296030000" lon="-72.909970000">
<ele>0</ele>
<time>2026-09-04T07:30:18Z</time>
</trkpt>
<trkpt lat="46.296460000" lon="-72.910880000">
<ele>0</ele>
<time>2026-09-04T07:30:19Z</time>
</trkpt>
<trkpt lat="46.297010000" lon="-72.912080000">
<ele>0</ele>
<time>2026-09-04T07:30:20Z</time>
</trkpt>
<trkpt lat="46.297590000" lon="-72.913250000">
<ele>0</ele>
<time>2026-09-04T07:30:21Z</time>
</trkpt>
<trkpt lat="46.297900000" lon="-72.913890000">
<ele>0</ele>
<time>2026-09-04T07:30:22Z</time>
</trkpt>
<trkpt lat="46.298000000" lon="-72.914100000">
<ele>0</ele>
<time>2026-09-04T07:30:23Z</time>
</trkpt>
<trkpt lat="46.298130000" lon="-72.914440000">
<ele>0</ele>
<time>2026-09-04T07:30:24Z</time>
</trkpt>
<trkpt lat="46.298140000" lon="-72.914570000">
<ele>0</ele>
<time>2026-09-04T07:30:25Z</time>
</trkpt>
<trkpt lat="46.298040000" lon="-72.914630000">
<ele>0</ele>
<time>2026-09-04T07:30:26Z</time>
</trkpt>
<trkpt lat="46.297970000" lon="-72.914650000">
<ele>0</ele>
<time>2026-09-04T07:30:27Z</time>
</trkpt>
<trkpt lat="46.297970000" lon="-72.914650000">
<ele>0</ele>
<time>2026-09-04T07:30:28Z</time>
</trkpt>
<trkpt lat="46.297630000" lon="-72.914730000">
<ele>0</ele>
<time>2026-09-04T07:30:29Z</time>
</trkpt>
<trkpt lat="46.297290000" lon="-72.914850000">
<ele>0</ele>
<time>2026-09-04T07:30:30Z</time>
</trkpt>
<trkpt lat="46.297060000" lon="-72.914980000">
<ele>0</ele>
<time>2026-09-04T07:30:31Z</time>
</trkpt>
<trkpt lat="46.296620000" lon="-72.915220000">
<ele>0</ele>
<time>2026-09-04T07:30:32Z</time>
</trkpt>
<trkpt lat="46.296430000" lon="-72.915360000">
<ele>0</ele>
<time>2026-09-04T07:30:33Z</time>
</trkpt>
<trkpt lat="46.296160000" lon="-72.915580000">
<ele>0</ele>
<time>2026-09-04T07:30:34Z</time>
</trkpt>
<trkpt lat="46.295930000" lon="-72.915840000">
<ele>0</ele>
<time>2026-09-04T07:30:35Z</time>
</trkpt>
<trkpt lat="46.296060000" lon="-72.916010000">
<ele>0</ele>
<time>2026-09-04T07:30:36Z</time>
</trkpt>
<trkpt lat="46.296060000" lon="-72.916010000">
<ele>0</ele>
<time>2026-09-04T07:30:37Z</time>
</trkpt>
<trkpt lat="46.296750000" lon="-72.916980000">
<ele>0</ele>
<time>2026-09-04T07:30:38Z</time>
</trkpt>
<trkpt lat="46.298240000" lon="-72.919180000">
<ele>0</ele>
<time>2026-09-04T07:30:39Z</time>
</trkpt>
<trkpt lat="46.299360000" lon="-72.920820000">
<ele>0</ele>
<time>2026-09-04T07:30:40Z</time>
</trkpt>
<trkpt lat="46.300010000" lon="-72.921780000">
<ele>0</ele>
<time>2026-09-04T07:30:41Z</time>
</trkpt>
<trkpt lat="46.300470000" lon="-72.922460000">
<ele>0</ele>
<time>2026-09-04T07:30:42Z</time>
</trkpt>
<trkpt lat="46.300780000" lon="-72.922810000">
<ele>0</ele>
<time>2026-09-04T07:30:43Z</time>
</trkpt>
<trkpt lat="46.301290000" lon="-72.923380000">
<ele>0</ele>
<time>2026-09-04T07:30:44Z</time>
</trkpt>
<trkpt lat="46.301770000" lon="-72.923910000">
<ele>0</ele>
<time>2026-09-04T07:30:45Z</time>
</trkpt>
<trkpt lat="46.301910000" lon="-72.924090000">
<ele>0</ele>
<time>2026-09-04T07:30:46Z</time>
</trkpt>
<trkpt lat="46.303220000" lon="-72.925860000">
<ele>0</ele>
<time>2026-09-04T07:30:47Z</time>
</trkpt>
<trkpt lat="46.304390000" lon="-72.927480000">
<ele>0</ele>
<time>2026-09-04T07:30:48Z</time>
</trkpt>
<trkpt lat="46.305800000" lon="-72.929440000">
<ele>0</ele>
<time>2026-09-04T07:30:49Z</time>
</trkpt>
<trkpt lat="46.306480000" lon="-72.930470000">
<ele>0</ele>
<time>2026-09-04T07:30:50Z</time>
</trkpt>
<trkpt lat="46.306720000" lon="-72.930720000">
<ele>0</ele>
<time>2026-09-04T07:30:51Z</time>
</trkpt>
<trkpt lat="46.308030000" lon="-72.932100000">
<ele>0</ele>
<time>2026-09-04T07:30:52Z</time>
</trkpt>
<trkpt lat="46.310220000" lon="-72.934400000">
<ele>0</ele>
<time>2026-09-04T07:30:53Z</time>
</trkpt>
<trkpt lat="46.310430000" lon="-72.934620000">
<ele>0</ele>
<time>2026-09-04T07:30:54Z</time>
</trkpt>
<trkpt lat="46.310680000" lon="-72.934740000">
<ele>0</ele>
<time>2026-09-04T07:30:55Z</time>
</trkpt>
<trkpt lat="46.310710000" lon="-72.934750000">
<ele>0</ele>
<time>2026-09-04T07:30:56Z</time>
</trkpt>
<trkpt lat="46.311100000" lon="-72.934750000">
<ele>0</ele>
<time>2026-09-04T07:30:57Z</time>
</trkpt>
<trkpt lat="46.311630000" lon="-72.934670000">
<ele>0</ele>
<time>2026-09-04T07:30:58Z</time>
</trkpt>
<trkpt lat="46.311770000" lon="-72.934680000">
<ele>0</ele>
<time>2026-09-04T07:30:59Z</time>
</trkpt>
<trkpt lat="46.312080000" lon="-72.934710000">
<ele>0</ele>
<time>2026-09-04T07:31:00Z</time>
</trkpt>
<trkpt lat="46.312510000" lon="-72.934750000">
<ele>0</ele>
<time>2026-09-04T07:31:01Z</time>
</trkpt>
<trkpt lat="46.312640000" lon="-72.934790000">
<ele>0</ele>
<time>2026-09-04T07:31:02Z</time>
</trkpt>
<trkpt lat="46.312680000" lon="-72.934810000">
<ele>0</ele>
<time>2026-09-04T07:31:03Z</time>
</trkpt>
<trkpt lat="46.313110000" lon="-72.934960000">
<ele>0</ele>
<time>2026-09-04T07:31:04Z</time>
</trkpt>
<trkpt lat="46.313550000" lon="-72.935150000">
<ele>0</ele>
<time>2026-09-04T07:31:05Z</time>
</trkpt>
<trkpt lat="46.313450000" lon="-72.935400000">
<ele>0</ele>
<time>2026-09-04T07:31:06Z</time>
</trkpt>
<trkpt lat="46.313450000" lon="-72.935400000">
<ele>0</ele>
<time>2026-09-04T07:31:07Z</time>
</trkpt>
<trkpt lat="46.313100000" lon="-72.936280000">
<ele>0</ele>
<time>2026-09-04T07:31:08Z</time>
</trkpt>
<trkpt lat="46.313020000" lon="-72.936530000">
<ele>0</ele>
<time>2026-09-04T07:31:09Z</time>
</trkpt>
<trkpt lat="46.312680000" lon="-72.937430000">
<ele>0</ele>
<time>2026-09-04T07:31:10Z</time>
</trkpt>
<trkpt lat="46.311910000" lon="-72.939490000">
<ele>0</ele>
<time>2026-09-04T07:31:11Z</time>
</trkpt>
<trkpt lat="46.311680000" lon="-72.940160000">
<ele>0</ele>
<time>2026-09-04T07:31:12Z</time>
</trkpt>
<trkpt lat="46.311570000" lon="-72.940480000">
<ele>0</ele>
<time>2026-09-04T07:31:13Z</time>
</trkpt>
<trkpt lat="46.311400000" lon="-72.941090000">
<ele>0</ele>
<time>2026-09-04T07:31:14Z</time>
</trkpt>
<trkpt lat="46.311250000" lon="-72.941970000">
<ele>0</ele>
<time>2026-09-04T07:31:15Z</time>
</trkpt>
<trkpt lat="46.311070000" lon="-72.943250000">
<ele>0</ele>
<time>2026-09-04T07:31:16Z</time>
</trkpt>
<trkpt lat="46.310850000" lon="-72.944780000">
<ele>0</ele>
<time>2026-09-04T07:31:17Z</time>
</trkpt>
<trkpt lat="46.310590000" lon="-72.946640000">
<ele>0</ele>
<time>2026-09-04T07:31:18Z</time>
</trkpt>
<trkpt lat="46.310470000" lon="-72.946590000">
<ele>0</ele>
<time>2026-09-04T07:31:19Z</time>
</trkpt>
<trkpt lat="46.310470000" lon="-72.946590000">
<ele>0</ele>
<time>2026-09-04T07:31:20Z</time>
</trkpt>
<trkpt lat="46.309030000" lon="-72.946000000">
<ele>0</ele>
<time>2026-09-04T07:31:21Z</time>
</trkpt>
<trkpt lat="46.307490000" lon="-72.945340000">
<ele>0</ele>
<time>2026-09-04T07:31:22Z</time>
</trkpt>
<trkpt lat="46.306620000" lon="-72.944960000">
<ele>0</ele>
<time>2026-09-04T07:31:23Z</time>
</trkpt>
<trkpt lat="46.306440000" lon="-72.944890000">
<ele>0</ele>
<time>2026-09-04T07:31:24Z</time>
</trkpt>
<trkpt lat="46.305790000" lon="-72.944700000">
<ele>0</ele>
<time>2026-09-04T07:31:25Z</time>
</trkpt>
<trkpt lat="46.305450000" lon="-72.944640000">
<ele>0</ele>
<time>2026-09-04T07:31:26Z</time>
</trkpt>
<trkpt lat="46.304950000" lon="-72.944590000">
<ele>0</ele>
<time>2026-09-04T07:31:27Z</time>
</trkpt>
<trkpt lat="46.304130000" lon="-72.944610000">
<ele>0</ele>
<time>2026-09-04T07:31:28Z</time>
</trkpt>
<trkpt lat="46.303050000" lon="-72.944720000">
<ele>0</ele>
<time>2026-09-04T07:31:29Z</time>
</trkpt>
<trkpt lat="46.302070000" lon="-72.944830000">
<ele>0</ele>
<time>2026-09-04T07:31:30Z</time>
</trkpt>
<trkpt lat="46.301750000" lon="-72.944840000">
<ele>0</ele>
<time>2026-09-04T07:31:31Z</time>
</trkpt>
<trkpt lat="46.301750000" lon="-72.944840000">
<ele>0</ele>
<time>2026-09-04T07:31:32Z</time>
</trkpt>
<trkpt lat="46.301560000" lon="-72.944820000">
<ele>0</ele>
<time>2026-09-04T07:31:33Z</time>
</trkpt>
<trkpt lat="46.301250000" lon="-72.944740000">
<ele>0</ele>
<time>2026-09-04T07:31:34Z</time>
</trkpt>
<trkpt lat="46.300760000" lon="-72.944510000">
<ele>0</ele>
<time>2026-09-04T07:31:35Z</time>
</trkpt>
<trkpt lat="46.300340000" lon="-72.944200000">
<ele>0</ele>
<time>2026-09-04T07:31:36Z</time>
</trkpt>
<trkpt lat="46.300130000" lon="-72.944010000">
<ele>0</ele>
<time>2026-09-04T07:31:37Z</time>
</trkpt>
<trkpt lat="46.299690000" lon="-72.943510000">
<ele>0</ele>
<time>2026-09-04T07:31:38Z</time>
</trkpt>
<trkpt lat="46.299330000" lon="-72.943090000">
<ele>0</ele>
<time>2026-09-04T07:31:39Z</time>
</trkpt>
<trkpt lat="46.298090000" lon="-72.941670000">
<ele>0</ele>
<time>2026-09-04T07:31:40Z</time>
</trkpt>
<trkpt lat="46.297120000" lon="-72.940600000">
<ele>0</ele>
<time>2026-09-04T07:31:41Z</time>
</trkpt>
<trkpt lat="46.296240000" lon="-72.939580000">
<ele>0</ele>
<time>2026-09-04T07:31:42Z</time>
</trkpt>
<trkpt lat="46.295780000" lon="-72.939060000">
<ele>0</ele>
<time>2026-09-04T07:31:43Z</time>
</trkpt>
<trkpt lat="46.294990000" lon="-72.938080000">
<ele>0</ele>
<time>2026-09-04T07:31:44Z</time>
</trkpt>
<trkpt lat="46.293410000" lon="-72.936110000">
<ele>0</ele>
<time>2026-09-04T07:31:45Z</time>
</trkpt>
<trkpt lat="46.293080000" lon="-72.935740000">
<ele>0</ele>
<time>2026-09-04T07:31:46Z</time>
</trkpt>
<trkpt lat="46.292900000" lon="-72.935550000">
<ele>0</ele>
<time>2026-09-04T07:31:47Z</time>
</trkpt>
<trkpt lat="46.292450000" lon="-72.935140000">
<ele>0</ele>
<time>2026-09-04T07:31:48Z</time>
</trkpt>
<trkpt lat="46.291720000" lon="-72.934550000">
<ele>0</ele>
<time>2026-09-04T07:31:49Z</time>
</trkpt>
<trkpt lat="46.290430000" lon="-72.933560000">
<ele>0</ele>
<time>2026-09-04T07:31:50Z</time>
</trkpt>
<trkpt lat="46.290120000" lon="-72.933290000">
<ele>0</ele>
<time>2026-09-04T07:31:51Z</time>
</trkpt>
<trkpt lat="46.288700000" lon="-72.931940000">
<ele>0</ele>
<time>2026-09-04T07:31:52Z</time>
</trkpt>
<trkpt lat="46.288000000" lon="-72.931320000">
<ele>0</ele>
<time>2026-09-04T07:31:53Z</time>
</trkpt>
<trkpt lat="46.287190000" lon="-72.930610000">
<ele>0</ele>
<time>2026-09-04T07:31:54Z</time>
</trkpt>
<trkpt lat="46.285800000" lon="-72.929560000">
<ele>0</ele>
<time>2026-09-04T07:31:55Z</time>
</trkpt>
<trkpt lat="46.285180000" lon="-72.929100000">
<ele>0</ele>
<time>2026-09-04T07:31:56Z</time>
</trkpt>
<trkpt lat="46.284950000" lon="-72.928960000">
<ele>0</ele>
<time>2026-09-04T07:31:57Z</time>
</trkpt>
<trkpt lat="46.284600000" lon="-72.928780000">
<ele>0</ele>
<time>2026-09-04T07:31:58Z</time>
</trkpt>
<trkpt lat="46.284210000" lon="-72.928610000">
<ele>0</ele>
<time>2026-09-04T07:31:59Z</time>
</trkpt>
<trkpt lat="46.283930000" lon="-72.928520000">
<ele>0</ele>
<time>2026-09-04T07:32:00Z</time>
</trkpt>
<trkpt lat="46.283600000" lon="-72.928450000">
<ele>0</ele>
<time>2026-09-04T07:32:01Z</time>
</trkpt>
<trkpt lat="46.283250000" lon="-72.928400000">
<ele>0</ele>
<time>2026-09-04T07:32:02Z</time>
</trkpt>
<trkpt lat="46.282920000" lon="-72.928360000">
<ele>0</ele>
<time>2026-09-04T07:32:03Z</time>
</trkpt>
<trkpt lat="46.282410000" lon="-72.928350000">
<ele>0</ele>
<time>2026-09-04T07:32:04Z</time>
</trkpt>
<trkpt lat="46.280730000" lon="-72.928310000">
<ele>0</ele>
<time>2026-09-04T07:32:05Z</time>
</trkpt>
<trkpt lat="46.278810000" lon="-72.928260000">
<ele>0</ele>
<time>2026-09-04T07:32:06Z</time>
</trkpt>
<trkpt lat="46.277310000" lon="-72.928170000">
<ele>0</ele>
<time>2026-09-04T07:32:07Z</time>
</trkpt>
<trkpt lat="46.276860000" lon="-72.928150000">
<ele>0</ele>
<time>2026-09-04T07:32:08Z</time>
</trkpt>
<trkpt lat="46.276170000" lon="-72.928190000">
<ele>0</ele>
<time>2026-09-04T07:32:09Z</time>
</trkpt>
<trkpt lat="46.275990000" lon="-72.928220000">
<ele>0</ele>
<time>2026-09-04T07:32:10Z</time>
</trkpt>
<trkpt lat="46.275730000" lon="-72.928310000">
<ele>0</ele>
<time>2026-09-04T07:32:11Z</time>
</trkpt>
<trkpt lat="46.275290000" lon="-72.928560000">
<ele>0</ele>
<time>2026-09-04T07:32:12Z</time>
</trkpt>
<trkpt lat="46.275080000" lon="-72.928710000">
<ele>0</ele>
<time>2026-09-04T07:32:13Z</time>
</trkpt>
<trkpt lat="46.274980000" lon="-72.928800000">
<ele>0</ele>
<time>2026-09-04T07:32:14Z</time>
</trkpt>
<trkpt lat="46.274790000" lon="-72.929020000">
<ele>0</ele>
<time>2026-09-04T07:32:15Z</time>
</trkpt>
<trkpt lat="46.274640000" lon="-72.929210000">
<ele>0</ele>
<time>2026-09-04T07:32:16Z</time>
</trkpt>
<trkpt lat="46.274300000" lon="-72.929760000">
<ele>0</ele>
<time>2026-09-04T07:32:17Z</time>
</trkpt>
<trkpt lat="46.273320000" lon="-72.931190000">
<ele>0</ele>
<time>2026-09-04T07:32:18Z</time>
</trkpt>
<trkpt lat="46.271840000" lon="-72.933320000">
<ele>0</ele>
<time>2026-09-04T07:32:19Z</time>
</trkpt>
<trkpt lat="46.271160000" lon="-72.934160000">
<ele>0</ele>
<time>2026-09-04T07:32:20Z</time>
</trkpt>
<trkpt lat="46.271040000" lon="-72.934300000">
<ele>0</ele>
<time>2026-09-04T07:32:21Z</time>
</trkpt>
<trkpt lat="46.270480000" lon="-72.934850000">
<ele>0</ele>
<time>2026-09-04T07:32:22Z</time>
</trkpt>
<trkpt lat="46.270160000" lon="-72.935110000">
<ele>0</ele>
<time>2026-09-04T07:32:23Z</time>
</trkpt>
<trkpt lat="46.269440000" lon="-72.935630000">
<ele>0</ele>
<time>2026-09-04T07:32:24Z</time>
</trkpt>
<trkpt lat="46.268790000" lon="-72.936090000">
<ele>0</ele>
<time>2026-09-04T07:32:25Z</time>
</trkpt>
<trkpt lat="46.268340000" lon="-72.936370000">
<ele>0</ele>
<time>2026-09-04T07:32:26Z</time>
</trkpt>
<trkpt lat="46.268080000" lon="-72.936490000">
<ele>0</ele>
<time>2026-09-04T07:32:27Z</time>
</trkpt>
<trkpt lat="46.267640000" lon="-72.936640000">
<ele>0</ele>
<time>2026-09-04T07:32:28Z</time>
</trkpt>
<trkpt lat="46.266770000" lon="-72.936810000">
<ele>0</ele>
<time>2026-09-04T07:32:29Z</time>
</trkpt>
<trkpt lat="46.266290000" lon="-72.936880000">
<ele>0</ele>
<time>2026-09-04T07:32:30Z</time>
</trkpt>
<trkpt lat="46.265940000" lon="-72.936900000">
<ele>0</ele>
<time>2026-09-04T07:32:31Z</time>
</trkpt>
<trkpt lat="46.265700000" lon="-72.936920000">
<ele>0</ele>
<time>2026-09-04T07:32:32Z</time>
</trkpt>
<trkpt lat="46.264980000" lon="-72.936900000">
<ele>0</ele>
<time>2026-09-04T07:32:33Z</time>
</trkpt>
<trkpt lat="46.264520000" lon="-72.936900000">
<ele>0</ele>
<time>2026-09-04T07:32:34Z</time>
</trkpt>
<trkpt lat="46.264000000" lon="-72.936960000">
<ele>0</ele>
<time>2026-09-04T07:32:35Z</time>
</trkpt>
<trkpt lat="46.263700000" lon="-72.937030000">
<ele>0</ele>
<time>2026-09-04T07:32:36Z</time>
</trkpt>
<trkpt lat="46.262670000" lon="-72.937460000">
<ele>0</ele>
<time>2026-09-04T07:32:37Z</time>
</trkpt>
<trkpt lat="46.261860000" lon="-72.937810000">
<ele>0</ele>
<time>2026-09-04T07:32:38Z</time>
</trkpt>
<trkpt lat="46.261880000" lon="-72.938110000">
<ele>0</ele>
<time>2026-09-04T07:32:39Z</time>
</trkpt>
<trkpt lat="46.261880000" lon="-72.938110000">
<ele>0</ele>
<time>2026-09-04T07:32:40Z</time>
</trkpt>
<trkpt lat="46.261610000" lon="-72.943840000">
<ele>0</ele>
<time>2026-09-04T07:32:41Z</time>
</trkpt>
<trkpt lat="46.261610000" lon="-72.943840000">
<ele>0</ele>
<time>2026-09-04T07:32:42Z</time>
</trkpt>
<trkpt lat="46.261500000" lon="-72.946170000">
<ele>0</ele>
<time>2026-09-04T07:32:43Z</time>
</trkpt>
<trkpt lat="46.261500000" lon="-72.946170000">
<ele>0</ele>
<time>2026-09-04T07:32:44Z</time>
</trkpt>
<trkpt lat="46.261340000" lon="-72.948500000">
<ele>0</ele>
<time>2026-09-04T07:32:45Z</time>
</trkpt>
<trkpt lat="46.261330000" lon="-72.948810000">
<ele>0</ele>
<time>2026-09-04T07:32:46Z</time>
</trkpt>
<trkpt lat="46.261440000" lon="-72.948820000">
<ele>0</ele>
<time>2026-09-04T07:32:47Z</time>
</trkpt>
<trkpt lat="46.261440000" lon="-72.948820000">
<ele>0</ele>
<time>2026-09-04T07:32:48Z</time>
</trkpt>
<trkpt lat="46.262360000" lon="-72.948970000">
<ele>0</ele>
<time>2026-09-04T07:32:49Z</time>
</trkpt>
<trkpt lat="46.263380000" lon="-72.949200000">
<ele>0</ele>
<time>2026-09-04T07:32:50Z</time>
</trkpt>
<trkpt lat="46.263480000" lon="-72.949230000">
<ele>0</ele>
<time>2026-09-04T07:32:51Z</time>
</trkpt>
<trkpt lat="46.263480000" lon="-72.949230000">
<ele>0</ele>
<time>2026-09-04T07:32:52Z</time>
</trkpt>
<trkpt lat="46.263740000" lon="-72.949300000">
<ele>0</ele>
<time>2026-09-04T07:32:53Z</time>
</trkpt>
<trkpt lat="46.263930000" lon="-72.949410000">
<ele>0</ele>
<time>2026-09-04T07:32:54Z</time>
</trkpt>
<trkpt lat="46.264380000" lon="-72.949660000">
<ele>0</ele>
<time>2026-09-04T07:32:55Z</time>
</trkpt>
<trkpt lat="46.264680000" lon="-72.949840000">
<ele>0</ele>
<time>2026-09-04T07:32:56Z</time>
</trkpt>
<trkpt lat="46.264680000" lon="-72.949840000">
<ele>0</ele>
<time>2026-09-04T07:32:57Z</time>
</trkpt>
<trkpt lat="46.265180000" lon="-72.950130000">
<ele>0</ele>
<time>2026-09-04T07:32:58Z</time>
</trkpt>
<trkpt lat="46.265600000" lon="-72.950380000">
<ele>0</ele>
<time>2026-09-04T07:32:59Z</time>
</trkpt>
<trkpt lat="46.265970000" lon="-72.950660000">
<ele>0</ele>
<time>2026-09-04T07:33:00Z</time>
</trkpt>
<trkpt lat="46.266810000" lon="-72.951240000">
<ele>0</ele>
<time>2026-09-04T07:33:01Z</time>
</trkpt>
<trkpt lat="46.268610000" lon="-72.952430000">
<ele>0</ele>
<time>2026-09-04T07:33:02Z</time>
</trkpt>
<trkpt lat="46.269230000" lon="-72.952850000">
<ele>0</ele>
<time>2026-09-04T07:33:03Z</time>
</trkpt>
<trkpt lat="46.271710000" lon="-72.954500000">
<ele>0</ele>
<time>2026-09-04T07:33:04Z</time>
</trkpt>
<trkpt lat="46.273820000" lon="-72.955960000">
<ele>0</ele>
<time>2026-09-04T07:33:05Z</time>
</trkpt>
<trkpt lat="46.276390000" lon="-72.957720000">
<ele>0</ele>
<time>2026-09-04T07:33:06Z</time>
</trkpt>
<trkpt lat="46.278860000" lon="-72.959410000">
<ele>0</ele>
<time>2026-09-04T07:33:07Z</time>
</trkpt>
<trkpt lat="46.279820000" lon="-72.959980000">
<ele>0</ele>
<time>2026-09-04T07:33:08Z</time>
</trkpt>
<trkpt lat="46.280730000" lon="-72.960620000">
<ele>0</ele>
<time>2026-09-04T07:33:09Z</time>
</trkpt>
<trkpt lat="46.280940000" lon="-72.960770000">
<ele>0</ele>
<time>2026-09-04T07:33:10Z</time>
</trkpt>
<trkpt lat="46.284290000" lon="-72.963010000">
<ele>0</ele>
<time>2026-09-04T07:33:11Z</time>
</trkpt>
<trkpt lat="46.284790000" lon="-72.963250000">
<ele>0</ele>
<time>2026-09-04T07:33:12Z</time>
</trkpt>
<trkpt lat="46.285400000" lon="-72.963540000">
<ele>0</ele>
<time>2026-09-04T07:33:13Z</time>
</trkpt>
<trkpt lat="46.286940000" lon="-72.964080000">
<ele>0</ele>
<time>2026-09-04T07:33:14Z</time>
</trkpt>
<trkpt lat="46.287440000" lon="-72.964240000">
<ele>0</ele>
<time>2026-09-04T07:33:15Z</time>
</trkpt>
<trkpt lat="46.287440000" lon="-72.964240000">
<ele>0</ele>
<time>2026-09-04T07:33:16Z</time>
</trkpt>
<trkpt lat="46.291380000" lon="-72.965580000">
<ele>0</ele>
<time>2026-09-04T07:33:17Z</time>
</trkpt>
<trkpt lat="46.292790000" lon="-72.966030000">
<ele>0</ele>
<time>2026-09-04T07:33:18Z</time>
</trkpt>
<trkpt lat="46.293420000" lon="-72.966300000">
<ele>0</ele>
<time>2026-09-04T07:33:19Z</time>
</trkpt>
<trkpt lat="46.293660000" lon="-72.966470000">
<ele>0</ele>
<time>2026-09-04T07:33:20Z</time>
</trkpt>
<trkpt lat="46.293790000" lon="-72.966600000">
<ele>0</ele>
<time>2026-09-04T07:33:21Z</time>
</trkpt>
<trkpt lat="46.293940000" lon="-72.966750000">
<ele>0</ele>
<time>2026-09-04T07:33:22Z</time>
</trkpt>
<trkpt lat="46.294210000" lon="-72.967020000">
<ele>0</ele>
<time>2026-09-04T07:33:23Z</time>
</trkpt>
<trkpt lat="46.295480000" lon="-72.968740000">
<ele>0</ele>
<time>2026-09-04T07:33:24Z</time>
</trkpt>
<trkpt lat="46.297520000" lon="-72.971490000">
<ele>0</ele>
<time>2026-09-04T07:33:25Z</time>
</trkpt>
<trkpt lat="46.301330000" lon="-72.976650000">
<ele>0</ele>
<time>2026-09-04T07:33:26Z</time>
</trkpt>
<trkpt lat="46.302660000" lon="-72.978450000">
<ele>0</ele>
<time>2026-09-04T07:33:27Z</time>
</trkpt>
<trkpt lat="46.304430000" lon="-72.980800000">
<ele>0</ele>
<time>2026-09-04T07:33:28Z</time>
</trkpt>
<trkpt lat="46.305300000" lon="-72.981960000">
<ele>0</ele>
<time>2026-09-04T07:33:29Z</time>
</trkpt>
<trkpt lat="46.305300000" lon="-72.981960000">
<ele>0</ele>
<time>2026-09-04T07:33:30Z</time>
</trkpt>
<trkpt lat="46.309400000" lon="-72.987480000">
<ele>0</ele>
<time>2026-09-04T07:33:31Z</time>
</trkpt>
<trkpt lat="46.312050000" lon="-72.991100000">
<ele>0</ele>
<time>2026-09-04T07:33:32Z</time>
</trkpt>
<trkpt lat="46.313320000" lon="-72.992840000">
<ele>0</ele>
<time>2026-09-04T07:33:33Z</time>
</trkpt>
<trkpt lat="46.314390000" lon="-72.994240000">
<ele>0</ele>
<time>2026-09-04T07:33:34Z</time>
</trkpt>
<trkpt lat="46.315190000" lon="-72.995290000">
<ele>0</ele>
<time>2026-09-04T07:33:35Z</time>
</trkpt>
<trkpt lat="46.315730000" lon="-72.995980000">
<ele>0</ele>
<time>2026-09-04T07:33:36Z</time>
</trkpt>
<trkpt lat="46.316980000" lon="-72.997710000">
<ele>0</ele>
<time>2026-09-04T07:33:37Z</time>
</trkpt>
<trkpt lat="46.318040000" lon="-72.999100000">
<ele>0</ele>
<time>2026-09-04T07:33:38Z</time>
</trkpt>
<trkpt lat="46.318860000" lon="-73.000120000">
<ele>0</ele>
<time>2026-09-04T07:33:39Z</time>
</trkpt>
<trkpt lat="46.320090000" lon="-73.001800000">
<ele>0</ele>
<time>2026-09-04T07:33:40Z</time>
</trkpt>
<trkpt lat="46.320350000" lon="-73.002160000">
<ele>0</ele>
<time>2026-09-04T07:33:41Z</time>
</trkpt>
<trkpt lat="46.321530000" lon="-73.003770000">
<ele>0</ele>
<time>2026-09-04T07:33:42Z</time>
</trkpt>
<trkpt lat="46.321240000" lon="-73.004240000">
<ele>0</ele>
<time>2026-09-04T07:33:43Z</time>
</trkpt>
<trkpt lat="46.321170000" lon="-73.004350000">
<ele>0</ele>
<time>2026-09-04T07:33:44Z</time>
</trkpt>
<trkpt lat="46.321170000" lon="-73.004350000">
<ele>0</ele>
<time>2026-09-04T07:33:45Z</time>
</trkpt>
<trkpt lat="46.318940000" lon="-73.007900000">
<ele>0</ele>
<time>2026-09-04T07:33:46Z</time>
</trkpt>
<trkpt lat="46.318090000" lon="-73.009240000">
<ele>0</ele>
<time>2026-09-04T07:33:47Z</time>
</trkpt>
<trkpt lat="46.316980000" lon="-73.010960000">
<ele>0</ele>
<time>2026-09-04T07:33:48Z</time>
</trkpt>
<trkpt lat="46.316520000" lon="-73.011650000">
<ele>0</ele>
<time>2026-09-04T07:33:49Z</time>
</trkpt>
<trkpt lat="46.315450000" lon="-73.013160000">
<ele>0</ele>
<time>2026-09-04T07:33:50Z</time>
</trkpt>
<trkpt lat="46.314530000" lon="-73.014400000">
<ele>0</ele>
<time>2026-09-04T07:33:51Z</time>
</trkpt>
<trkpt lat="46.312740000" lon="-73.016840000">
<ele>0</ele>
<time>2026-09-04T07:33:52Z</time>
</trkpt>
<trkpt lat="46.309750000" lon="-73.020920000">
<ele>0</ele>
<time>2026-09-04T07:33:53Z</time>
</trkpt>
<trkpt lat="46.305690000" lon="-73.026450000">
<ele>0</ele>
<time>2026-09-04T07:33:54Z</time>
</trkpt>
<trkpt lat="46.304880000" lon="-73.027560000">
<ele>0</ele>
<time>2026-09-04T07:33:55Z</time>
</trkpt>
<trkpt lat="46.304640000" lon="-73.027880000">
<ele>0</ele>
<time>2026-09-04T07:33:56Z</time>
</trkpt>
<trkpt lat="46.303830000" lon="-73.028980000">
<ele>0</ele>
<time>2026-09-04T07:33:57Z</time>
</trkpt>
<trkpt lat="46.303760000" lon="-73.028870000">
<ele>0</ele>
<time>2026-09-04T07:33:58Z</time>
</trkpt>
<trkpt lat="46.303760000" lon="-73.028870000">
<ele>0</ele>
<time>2026-09-04T07:33:59Z</time>
</trkpt>
<trkpt lat="46.303490000" lon="-73.028510000">
<ele>0</ele>
<time>2026-09-04T07:34:00Z</time>
</trkpt>
<trkpt lat="46.303330000" lon="-73.028590000">
<ele>0</ele>
<time>2026-09-04T07:34:01Z</time>
</trkpt>
<trkpt lat="46.303330000" lon="-73.028590000">
<ele>0</ele>
<time>2026-09-04T07:34:02Z</time>
</trkpt>
<trkpt lat="46.302790000" lon="-73.028690000">
<ele>0</ele>
<time>2026-09-04T07:34:03Z</time>
</trkpt>
<trkpt lat="46.301180000" lon="-73.028930000">
<ele>0</ele>
<time>2026-09-04T07:34:04Z</time>
</trkpt>
<trkpt lat="46.300500000" lon="-73.029040000">
<ele>0</ele>
<time>2026-09-04T07:34:05Z</time>
</trkpt>
<trkpt lat="46.299570000" lon="-73.029190000">
<ele>0</ele>
<time>2026-09-04T07:34:06Z</time>
</trkpt>
<trkpt lat="46.297600000" lon="-73.029540000">
<ele>0</ele>
<time>2026-09-04T07:34:07Z</time>
</trkpt>
<trkpt lat="46.297070000" lon="-73.029630000">
<ele>0</ele>
<time>2026-09-04T07:34:08Z</time>
</trkpt>
<trkpt lat="46.295220000" lon="-73.029950000">
<ele>0</ele>
<time>2026-09-04T07:34:09Z</time>
</trkpt>
<trkpt lat="46.294770000" lon="-73.030010000">
<ele>0</ele>
<time>2026-09-04T07:34:10Z</time>
</trkpt>
<trkpt lat="46.294600000" lon="-73.030040000">
<ele>0</ele>
<time>2026-09-04T07:34:11Z</time>
</trkpt>
<trkpt lat="46.293320000" lon="-73.030270000">
<ele>0</ele>
<time>2026-09-04T07:34:12Z</time>
</trkpt>
<trkpt lat="46.292000000" lon="-73.030510000">
<ele>0</ele>
<time>2026-09-04T07:34:13Z</time>
</trkpt>
<trkpt lat="46.291870000" lon="-73.030530000">
<ele>0</ele>
<time>2026-09-04T07:34:14Z</time>
</trkpt>
<trkpt lat="46.291850000" lon="-73.030320000">
<ele>0</ele>
<time>2026-09-04T07:34:15Z</time>
</trkpt>
<trkpt lat="46.291850000" lon="-73.030320000">
<ele>0</ele>
<time>2026-09-04T07:34:16Z</time>
</trkpt>
<trkpt lat="46.291780000" lon="-73.029450000">
<ele>0</ele>
<time>2026-09-04T07:34:17Z</time>
</trkpt>
<trkpt lat="46.291730000" lon="-73.029310000">
<ele>0</ele>
<time>2026-09-04T07:34:18Z</time>
</trkpt>
<trkpt lat="46.291620000" lon="-73.029250000">
<ele>0</ele>
<time>2026-09-04T07:34:19Z</time>
</trkpt>
<trkpt lat="46.290370000" lon="-73.029450000">
<ele>0</ele>
<time>2026-09-04T07:34:20Z</time>
</trkpt>
<trkpt lat="46.290370000" lon="-73.029450000">
<ele>0</ele>
<time>2026-09-04T07:34:21Z</time>
</trkpt>
<trkpt lat="46.287630000" lon="-73.029910000">
<ele>0</ele>
<time>2026-09-04T07:34:22Z</time>
</trkpt>
<trkpt lat="46.285270000" lon="-73.030320000">
<ele>0</ele>
<time>2026-09-04T07:34:23Z</time>
</trkpt>
<trkpt lat="46.285380000" lon="-73.030560000">
<ele>0</ele>
<time>2026-09-04T07:34:24Z</time>
</trkpt>
<trkpt lat="46.285380000" lon="-73.030560000">
<ele>0</ele>
<time>2026-09-04T07:34:25Z</time>
</trkpt>
<trkpt lat="46.285160000" lon="-73.030100000">
<ele>0</ele>
<time>2026-09-04T07:34:26Z</time>
</trkpt>
<trkpt lat="46.285160000" lon="-73.030100000">
<ele>0</ele>
<time>2026-09-04T07:34:27Z</time>
</trkpt>
<trkpt lat="46.284320000" lon="-73.028110000">
<ele>0</ele>
<time>2026-09-04T07:34:28Z</time>
</trkpt>
<trkpt lat="46.284220000" lon="-73.027880000">
<ele>0</ele>
<time>2026-09-04T07:34:29Z</time>
</trkpt>
<trkpt lat="46.283840000" lon="-73.027030000">
<ele>0</ele>
<time>2026-09-04T07:34:30Z</time>
</trkpt>
<trkpt lat="46.283680000" lon="-73.026710000">
<ele>0</ele>
<time>2026-09-04T07:34:31Z</time>
</trkpt>
<trkpt lat="46.283680000" lon="-73.026710000">
<ele>0</ele>
<time>2026-09-04T07:34:32Z</time>
</trkpt>
<trkpt lat="46.283510000" lon="-73.026380000">
<ele>0</ele>
<time>2026-09-04T07:34:33Z</time>
</trkpt>
<trkpt lat="46.283280000" lon="-73.026000000">
<ele>0</ele>
<time>2026-09-04T07:34:34Z</time>
</trkpt>
<trkpt lat="46.283070000" lon="-73.025710000">
<ele>0</ele>
<time>2026-09-04T07:34:35Z</time>
</trkpt>
<trkpt lat="46.282440000" lon="-73.024960000">
<ele>0</ele>
<time>2026-09-04T07:34:36Z</time>
</trkpt>
<trkpt lat="46.282330000" lon="-73.024870000">
<ele>0</ele>
<time>2026-09-04T07:34:37Z</time>
</trkpt>
<trkpt lat="46.282330000" lon="-73.024870000">
<ele>0</ele>
<time>2026-09-04T07:34:38Z</time>
</trkpt>
<trkpt lat="46.281420000" lon="-73.024210000">
<ele>0</ele>
<time>2026-09-04T07:34:39Z</time>
</trkpt>
<trkpt lat="46.281140000" lon="-73.024110000">
<ele>0</ele>
<time>2026-09-04T07:34:40Z</time>
</trkpt>
<trkpt lat="46.281000000" lon="-73.024120000">
<ele>0</ele>
<time>2026-09-04T07:34:41Z</time>
</trkpt>
<trkpt lat="46.280880000" lon="-73.024190000">
<ele>0</ele>
<time>2026-09-04T07:34:42Z</time>
</trkpt>
<trkpt lat="46.280730000" lon="-73.024000000">
<ele>0</ele>
<time>2026-09-04T07:34:43Z</time>
</trkpt>
<trkpt lat="46.280730000" lon="-73.024000000">
<ele>0</ele>
<time>2026-09-04T07:34:44Z</time>
</trkpt>
<trkpt lat="46.280500000" lon="-73.023740000">
<ele>0</ele>
<time>2026-09-04T07:34:45Z</time>
</trkpt>
<trkpt lat="46.280350000" lon="-73.023600000">
<ele>0</ele>
<time>2026-09-04T07:34:46Z</time>
</trkpt>
<trkpt lat="46.280160000" lon="-73.023760000">
<ele>0</ele>
<time>2026-09-04T07:34:47Z</time>
</trkpt>
<trkpt lat="46.280160000" lon="-73.023760000">
<ele>0</ele>
<time>2026-09-04T07:34:48Z</time>
</trkpt>
<trkpt lat="46.279520000" lon="-73.024280000">
<ele>0</ele>
<time>2026-09-04T07:34:49Z</time>
</trkpt>
<trkpt lat="46.279180000" lon="-73.024500000">
<ele>0</ele>
<time>2026-09-04T07:34:50Z</time>
</trkpt>
<trkpt lat="46.279160000" lon="-73.024510000">
<ele>0</ele>
<time>2026-09-04T07:34:51Z</time>
</trkpt>
<trkpt lat="46.278960000" lon="-73.024530000">
<ele>0</ele>
<time>2026-09-04T07:34:52Z</time>
</trkpt>
<trkpt lat="46.278640000" lon="-73.024470000">
<ele>0</ele>
<time>2026-09-04T07:34:53Z</time>
</trkpt>
<trkpt lat="46.278600000" lon="-73.024460000">
<ele>0</ele>
<time>2026-09-04T07:34:54Z</time>
</trkpt>
<trkpt lat="46.278470000" lon="-73.024440000">
<ele>0</ele>
<time>2026-09-04T07:34:55Z</time>
</trkpt>
<trkpt lat="46.278110000" lon="-73.024340000">
<ele>0</ele>
<time>2026-09-04T07:34:56Z</time>
</trkpt>
<trkpt lat="46.277820000" lon="-73.024200000">
<ele>0</ele>
<time>2026-09-04T07:34:57Z</time>
</trkpt>
<trkpt lat="46.277610000" lon="-73.024080000">
<ele>0</ele>
<time>2026-09-04T07:34:58Z</time>
</trkpt>
<trkpt lat="46.276610000" lon="-73.023520000">
<ele>0</ele>
<time>2026-09-04T07:34:59Z</time>
</trkpt>
<trkpt lat="46.276420000" lon="-73.023380000">
<ele>0</ele>
<time>2026-09-04T07:35:00Z</time>
</trkpt>
<trkpt lat="46.276290000" lon="-73.023270000">
<ele>0</ele>
<time>2026-09-04T07:35:01Z</time>
</trkpt>
<trkpt lat="46.276080000" lon="-73.023020000">
<ele>0</ele>
<time>2026-09-04T07:35:02Z</time>
</trkpt>
<trkpt lat="46.275650000" lon="-73.022300000">
<ele>0</ele>
<time>2026-09-04T07:35:03Z</time>
</trkpt>
<trkpt lat="46.275250000" lon="-73.021430000">
<ele>0</ele>
<time>2026-09-04T07:35:04Z</time>
</trkpt>
<trkpt lat="46.275090000" lon="-73.021070000">
<ele>0</ele>
<time>2026-09-04T07:35:05Z</time>
</trkpt>
<trkpt lat="46.275050000" lon="-73.020940000">
<ele>0</ele>
<time>2026-09-04T07:35:06Z</time>
</trkpt>
<trkpt lat="46.275070000" lon="-73.020640000">
<ele>0</ele>
<time>2026-09-04T07:35:07Z</time>
</trkpt>
<trkpt lat="46.275230000" lon="-73.020280000">
<ele>0</ele>
<time>2026-09-04T07:35:08Z</time>
</trkpt>
<trkpt lat="46.275130000" lon="-73.020150000">
<ele>0</ele>
<time>2026-09-04T07:35:09Z</time>
</trkpt>
<trkpt lat="46.275130000" lon="-73.020150000">
<ele>0</ele>
<time>2026-09-04T07:35:10Z</time>
</trkpt>
<trkpt lat="46.274770000" lon="-73.019570000">
<ele>0</ele>
<time>2026-09-04T07:35:11Z</time>
</trkpt>
<trkpt lat="46.274620000" lon="-73.019300000">
<ele>0</ele>
<time>2026-09-04T07:35:12Z</time>
</trkpt>
<trkpt lat="46.274360000" lon="-73.018710000">
<ele>0</ele>
<time>2026-09-04T07:35:13Z</time>
</trkpt>
<trkpt lat="46.274190000" lon="-73.018180000">
<ele>0</ele>
<time>2026-09-04T07:35:14Z</time>
</trkpt>
<trkpt lat="46.274030000" lon="-73.017520000">
<ele>0</ele>
<time>2026-09-04T07:35:15Z</time>
</trkpt>
<trkpt lat="46.273950000" lon="-73.016930000">
<ele>0</ele>
<time>2026-09-04T07:35:16Z</time>
</trkpt>
<trkpt lat="46.273910000" lon="-73.016420000">
<ele>0</ele>
<time>2026-09-04T07:35:17Z</time>
</trkpt>
<trkpt lat="46.273870000" lon="-73.015280000">
<ele>0</ele>
<time>2026-09-04T07:35:18Z</time>
</trkpt>
<trkpt lat="46.273740000" lon="-73.012740000">
<ele>0</ele>
<time>2026-09-04T07:35:19Z</time>
</trkpt>
<trkpt lat="46.273640000" lon="-73.011620000">
<ele>0</ele>
<time>2026-09-04T07:35:20Z</time>
</trkpt>
<trkpt lat="46.273570000" lon="-73.010990000">
<ele>0</ele>
<time>2026-09-04T07:35:21Z</time>
</trkpt>
<trkpt lat="46.273530000" lon="-73.010760000">
<ele>0</ele>
<time>2026-09-04T07:35:22Z</time>
</trkpt>
<trkpt lat="46.272890000" lon="-73.007290000">
<ele>0</ele>
<time>2026-09-04T07:35:23Z</time>
</trkpt>
<trkpt lat="46.272390000" lon="-73.004740000">
<ele>0</ele>
<time>2026-09-04T07:35:24Z</time>
</trkpt>
<trkpt lat="46.271630000" lon="-73.001120000">
<ele>0</ele>
<time>2026-09-04T07:35:25Z</time>
</trkpt>
<trkpt lat="46.271370000" lon="-72.999990000">
<ele>0</ele>
<time>2026-09-04T07:35:26Z</time>
</trkpt>
<trkpt lat="46.270660000" lon="-72.997160000">
<ele>0</ele>
<time>2026-09-04T07:35:27Z</time>
</trkpt>
<trkpt lat="46.270660000" lon="-72.997160000">
<ele>0</ele>
<time>2026-09-04T07:35:28Z</time>
</trkpt>
<trkpt lat="46.269020000" lon="-72.991080000">
<ele>0</ele>
<time>2026-09-04T07:35:29Z</time>
</trkpt>
<trkpt lat="46.268120000" lon="-72.987670000">
<ele>0</ele>
<time>2026-09-04T07:35:30Z</time>
</trkpt>
<trkpt lat="46.266470000" lon="-72.981350000">
<ele>0</ele>
<time>2026-09-04T07:35:31Z</time>
</trkpt>
<trkpt lat="46.265030000" lon="-72.975790000">
<ele>0</ele>
<time>2026-09-04T07:35:32Z</time>
</trkpt>
<trkpt lat="46.264380000" lon="-72.973310000">
<ele>0</ele>
<time>2026-09-04T07:35:33Z</time>
</trkpt>
<trkpt lat="46.263690000" lon="-72.970810000">
<ele>0</ele>
<time>2026-09-04T07:35:34Z</time>
</trkpt>
<trkpt lat="46.263450000" lon="-72.970110000">
<ele>0</ele>
<time>2026-09-04T07:35:35Z</time>
</trkpt>
<trkpt lat="46.262970000" lon="-72.968850000">
<ele>0</ele>
<time>2026-09-04T07:35:36Z</time>
</trkpt>
<trkpt lat="46.261820000" lon="-72.965960000">
<ele>0</ele>
<time>2026-09-04T07:35:37Z</time>
</trkpt>
<trkpt lat="46.261820000" lon="-72.965960000">
<ele>0</ele>
<time>2026-09-04T07:35:38Z</time>
</trkpt>
<trkpt lat="46.261180000" lon="-72.964310000">
<ele>0</ele>
<time>2026-09-04T07:35:39Z</time>
</trkpt>
<trkpt lat="46.259660000" lon="-72.960410000">
<ele>0</ele>
<time>2026-09-04T07:35:40Z</time>
</trkpt>
<trkpt lat="46.259050000" lon="-72.958870000">
<ele>0</ele>
<time>2026-09-04T07:35:41Z</time>
</trkpt>
<trkpt lat="46.258900000" lon="-72.958540000">
<ele>0</ele>
<time>2026-09-04T07:35:42Z</time>
</trkpt>
<trkpt lat="46.258730000" lon="-72.958230000">
<ele>0</ele>
<time>2026-09-04T07:35:43Z</time>
</trkpt>
<trkpt lat="46.258900000" lon="-72.957970000">
<ele>0</ele>
<time>2026-09-04T07:35:44Z</time>
</trkpt>
<trkpt lat="46.258900000" lon="-72.957970000">
<ele>0</ele>
<time>2026-09-04T07:35:45Z</time>
</trkpt>
<trkpt lat="46.259200000" lon="-72.957510000">
<ele>0</ele>
<time>2026-09-04T07:35:46Z</time>
</trkpt>
<trkpt lat="46.259350000" lon="-72.957270000">
<ele>0</ele>
<time>2026-09-04T07:35:47Z</time>
</trkpt>
<trkpt lat="46.259670000" lon="-72.956640000">
<ele>0</ele>
<time>2026-09-04T07:35:48Z</time>
</trkpt>
<trkpt lat="46.259990000" lon="-72.955940000">
<ele>0</ele>
<time>2026-09-04T07:35:49Z</time>
</trkpt>
<trkpt lat="46.260270000" lon="-72.955160000">
<ele>0</ele>
<time>2026-09-04T07:35:50Z</time>
</trkpt>
<trkpt lat="46.260450000" lon="-72.954600000">
<ele>0</ele>
<time>2026-09-04T07:35:51Z</time>
</trkpt>
<trkpt lat="46.260580000" lon="-72.954110000">
<ele>0</ele>
<time>2026-09-04T07:35:52Z</time>
</trkpt>
<trkpt lat="46.260580000" lon="-72.954110000">
<ele>0</ele>
<time>2026-09-04T07:35:53Z</time>
</trkpt>
<trkpt lat="46.260730000" lon="-72.953500000">
<ele>0</ele>
<time>2026-09-04T07:35:54Z</time>
</trkpt>
<trkpt lat="46.260890000" lon="-72.952610000">
<ele>0</ele>
<time>2026-09-04T07:35:55Z</time>
</trkpt>
<trkpt lat="46.261330000" lon="-72.948810000">
<ele>0</ele>
<time>2026-09-04T07:35:56Z</time>
</trkpt>
<trkpt lat="46.261180000" lon="-72.948780000">
<ele>0</ele>
<time>2026-09-04T07:35:57Z</time>
</trkpt>
<trkpt lat="46.261180000" lon="-72.948780000">
<ele>0</ele>
<time>2026-09-04T07:35:58Z</time>
</trkpt>
<trkpt lat="46.259470000" lon="-72.948470000">
<ele>0</ele>
<time>2026-09-04T07:35:59Z</time>
</trkpt>
<trkpt lat="46.258860000" lon="-72.948410000">
<ele>0</ele>
<time>2026-09-04T07:36:00Z</time>
</trkpt>
<trkpt lat="46.258120000" lon="-72.948340000">
<ele>0</ele>
<time>2026-09-04T07:36:01Z</time>
</trkpt>
<trkpt lat="46.257260000" lon="-72.948230000">
<ele>0</ele>
<time>2026-09-04T07:36:02Z</time>
</trkpt>
<trkpt lat="46.257270000" lon="-72.947980000">
<ele>0</ele>
<time>2026-09-04T07:36:03Z</time>
</trkpt>
<trkpt lat="46.257270000" lon="-72.947980000">
<ele>0</ele>
<time>2026-09-04T07:36:04Z</time>
</trkpt>
<trkpt lat="46.257370000" lon="-72.945810000">
<ele>0</ele>
<time>2026-09-04T07:36:05Z</time>
</trkpt>
<trkpt lat="46.257440000" lon="-72.944760000">
<ele>0</ele>
<time>2026-09-04T07:36:06Z</time>
</trkpt>
<trkpt lat="46.257480000" lon="-72.943510000">
<ele>0</ele>
<time>2026-09-04T07:36:07Z</time>
</trkpt>
<trkpt lat="46.257480000" lon="-72.942480000">
<ele>0</ele>
<time>2026-09-04T07:36:08Z</time>
</trkpt>
<trkpt lat="46.257480000" lon="-72.941570000">
<ele>0</ele>
<time>2026-09-04T07:36:09Z</time>
</trkpt>
<trkpt lat="46.257470000" lon="-72.941120000">
<ele>0</ele>
<time>2026-09-04T07:36:10Z</time>
</trkpt>
<trkpt lat="46.257470000" lon="-72.941120000">
<ele>0</ele>
<time>2026-09-04T07:36:11Z</time>
</trkpt>
<trkpt lat="46.257460000" lon="-72.940500000">
<ele>0</ele>
<time>2026-09-04T07:36:12Z</time>
</trkpt>
<trkpt lat="46.257540000" lon="-72.939250000">
<ele>0</ele>
<time>2026-09-04T07:36:13Z</time>
</trkpt>
<trkpt lat="46.257390000" lon="-72.939290000">
<ele>0</ele>
<time>2026-09-04T07:36:14Z</time>
</trkpt>
<trkpt lat="46.257390000" lon="-72.939290000">
<ele>0</ele>
<time>2026-09-04T07:36:15Z</time>
</trkpt>
<trkpt lat="46.257190000" lon="-72.939370000">
<ele>0</ele>
<time>2026-09-04T07:36:16Z</time>
</trkpt>
<trkpt lat="46.256960000" lon="-72.939500000">
<ele>0</ele>
<time>2026-09-04T07:36:17Z</time>
</trkpt>
<trkpt lat="46.256780000" lon="-72.939610000">
<ele>0</ele>
<time>2026-09-04T07:36:18Z</time>
</trkpt>
<trkpt lat="46.256650000" lon="-72.939650000">
<ele>0</ele>
<time>2026-09-04T07:36:19Z</time>
</trkpt>
<trkpt lat="46.256400000" lon="-72.939690000">
<ele>0</ele>
<time>2026-09-04T07:36:20Z</time>
</trkpt>
<trkpt lat="46.256050000" lon="-72.939680000">
<ele>0</ele>
<time>2026-09-04T07:36:21Z</time>
</trkpt>
<trkpt lat="46.256060000" lon="-72.939490000">
<ele>0</ele>
<time>2026-09-04T07:36:22Z</time>
</trkpt>
<trkpt lat="46.256060000" lon="-72.939490000">
<ele>0</ele>
<time>2026-09-04T07:36:23Z</time>
</trkpt>
<trkpt lat="46.256130000" lon="-72.938010000">
<ele>0</ele>
<time>2026-09-04T07:36:24Z</time>
</trkpt>
<trkpt lat="46.256140000" lon="-72.937850000">
<ele>0</ele>
<time>2026-09-04T07:36:25Z</time>
</trkpt>
<trkpt lat="46.256330000" lon="-72.937840000">
<ele>0</ele>
<time>2026-09-04T07:36:26Z</time>
</trkpt>
<trkpt lat="46.256330000" lon="-72.937840000">
<ele>0</ele>
<time>2026-09-04T07:36:27Z</time>
</trkpt>
<trkpt lat="46.256840000" lon="-72.937820000">
<ele>0</ele>
<time>2026-09-04T07:36:28Z</time>
</trkpt>
<trkpt lat="46.257800000" lon="-72.937540000">
<ele>0</ele>
<time>2026-09-04T07:36:29Z</time>
</trkpt>
<trkpt lat="46.258550000" lon="-72.937370000">
<ele>0</ele>
<time>2026-09-04T07:36:30Z</time>
</trkpt>
<trkpt lat="46.259430000" lon="-72.937150000">
<ele>0</ele>
<time>2026-09-04T07:36:31Z</time>
</trkpt>
<trkpt lat="46.260310000" lon="-72.936860000">
<ele>0</ele>
<time>2026-09-04T07:36:32Z</time>
</trkpt>
<trkpt lat="46.260700000" lon="-72.936670000">
<ele>0</ele>
<time>2026-09-04T07:36:33Z</time>
</trkpt>
<trkpt lat="46.261050000" lon="-72.936500000">
<ele>0</ele>
<time>2026-09-04T07:36:34Z</time>
</trkpt>
<trkpt lat="46.261760000" lon="-72.936230000">
<ele>0</ele>
<time>2026-09-04T07:36:35Z</time>
</trkpt>
<trkpt lat="46.261760000" lon="-72.936230000">
<ele>0</ele>
<time>2026-09-04T07:36:36Z</time>
</trkpt>
<trkpt lat="46.262480000" lon="-72.936000000">
<ele>0</ele>
<time>2026-09-04T07:36:37Z</time>
</trkpt>
<trkpt lat="46.263010000" lon="-72.935860000">
<ele>0</ele>
<time>2026-09-04T07:36:38Z</time>
</trkpt>
<trkpt lat="46.264550000" lon="-72.935590000">
<ele>0</ele>
<time>2026-09-04T07:36:39Z</time>
</trkpt>
<trkpt lat="46.265090000" lon="-72.935500000">
<ele>0</ele>
<time>2026-09-04T07:36:40Z</time>
</trkpt>
<trkpt lat="46.265970000" lon="-72.935280000">
<ele>0</ele>
<time>2026-09-04T07:36:41Z</time>
</trkpt>
<trkpt lat="46.266840000" lon="-72.934940000">
<ele>0</ele>
<time>2026-09-04T07:36:42Z</time>
</trkpt>
<trkpt lat="46.268570000" lon="-72.934330000">
<ele>0</ele>
<time>2026-09-04T07:36:43Z</time>
</trkpt>
<trkpt lat="46.268830000" lon="-72.934210000">
<ele>0</ele>
<time>2026-09-04T07:36:44Z</time>
</trkpt>
<trkpt lat="46.269160000" lon="-72.934040000">
<ele>0</ele>
<time>2026-09-04T07:36:45Z</time>
</trkpt>
<trkpt lat="46.269480000" lon="-72.933780000">
<ele>0</ele>
<time>2026-09-04T07:36:46Z</time>
</trkpt>
<trkpt lat="46.269570000" lon="-72.933710000">
<ele>0</ele>
<time>2026-09-04T07:36:47Z</time>
</trkpt>
<trkpt lat="46.270070000" lon="-72.933120000">
<ele>0</ele>
<time>2026-09-04T07:36:48Z</time>
</trkpt>
<trkpt lat="46.270600000" lon="-72.932470000">
<ele>0</ele>
<time>2026-09-04T07:36:49Z</time>
</trkpt>
<trkpt lat="46.271300000" lon="-72.931610000">
<ele>0</ele>
<time>2026-09-04T07:36:50Z</time>
</trkpt>
<trkpt lat="46.273310000" lon="-72.929230000">
<ele>0</ele>
<time>2026-09-04T07:36:51Z</time>
</trkpt>
<trkpt lat="46.274040000" lon="-72.928060000">
<ele>0</ele>
<time>2026-09-04T07:36:52Z</time>
</trkpt>
<trkpt lat="46.274710000" lon="-72.927060000">
<ele>0</ele>
<time>2026-09-04T07:36:53Z</time>
</trkpt>
<trkpt lat="46.274830000" lon="-72.926870000">
<ele>0</ele>
<time>2026-09-04T07:36:54Z</time>
</trkpt>
<trkpt lat="46.275280000" lon="-72.926050000">
<ele>0</ele>
<time>2026-09-04T07:36:55Z</time>
</trkpt>
<trkpt lat="46.275730000" lon="-72.925230000">
<ele>0</ele>
<time>2026-09-04T07:36:56Z</time>
</trkpt>
<trkpt lat="46.275930000" lon="-72.924800000">
<ele>0</ele>
<time>2026-09-04T07:36:57Z</time>
</trkpt>
<trkpt lat="46.276730000" lon="-72.923060000">
<ele>0</ele>
<time>2026-09-04T07:36:58Z</time>
</trkpt>
<trkpt lat="46.276880000" lon="-72.922600000">
<ele>0</ele>
<time>2026-09-04T07:36:59Z</time>
</trkpt>
<trkpt lat="46.277130000" lon="-72.921690000">
<ele>0</ele>
<time>2026-09-04T07:37:00Z</time>
</trkpt>
<trkpt lat="46.277390000" lon="-72.920620000">
<ele>0</ele>
<time>2026-09-04T07:37:01Z</time>
</trkpt>
<trkpt lat="46.277600000" lon="-72.919390000">
<ele>0</ele>
<time>2026-09-04T07:37:02Z</time>
</trkpt>
<trkpt lat="46.277630000" lon="-72.919130000">
<ele>0</ele>
<time>2026-09-04T07:37:03Z</time>
</trkpt>
<trkpt lat="46.277750000" lon="-72.918100000">
<ele>0</ele>
<time>2026-09-04T07:37:04Z</time>
</trkpt>
<trkpt lat="46.277800000" lon="-72.917070000">
<ele>0</ele>
<time>2026-09-04T07:37:05Z</time>
</trkpt>
<trkpt lat="46.277830000" lon="-72.916560000">
<ele>0</ele>
<time>2026-09-04T07:37:06Z</time>
</trkpt>
<trkpt lat="46.277900000" lon="-72.916040000">
<ele>0</ele>
<time>2026-09-04T07:37:07Z</time>
</trkpt>
<trkpt lat="46.278000000" lon="-72.915340000">
<ele>0</ele>
<time>2026-09-04T07:37:08Z</time>
</trkpt>
<trkpt lat="46.278170000" lon="-72.914360000">
<ele>0</ele>
<time>2026-09-04T07:37:09Z</time>
</trkpt>
<trkpt lat="46.278270000" lon="-72.913680000">
<ele>0</ele>
<time>2026-09-04T07:37:10Z</time>
</trkpt>
<trkpt lat="46.278300000" lon="-72.913240000">
<ele>0</ele>
<time>2026-09-04T07:37:11Z</time>
</trkpt>
<trkpt lat="46.278330000" lon="-72.912930000">
<ele>0</ele>
<time>2026-09-04T07:37:12Z</time>
</trkpt>
<trkpt lat="46.278390000" lon="-72.911160000">
<ele>0</ele>
<time>2026-09-04T07:37:13Z</time>
</trkpt>
<trkpt lat="46.278420000" lon="-72.910380000">
<ele>0</ele>
<time>2026-09-04T07:37:14Z</time>
</trkpt>
<trkpt lat="46.278390000" lon="-72.909770000">
<ele>0</ele>
<time>2026-09-04T07:37:15Z</time>
</trkpt>
<trkpt lat="46.278360000" lon="-72.909080000">
<ele>0</ele>
<time>2026-09-04T07:37:16Z</time>
</trkpt>
<trkpt lat="46.278340000" lon="-72.908560000">
<ele>0</ele>
<time>2026-09-04T07:37:17Z</time>
</trkpt>
<trkpt lat="46.278280000" lon="-72.907790000">
<ele>0</ele>
<time>2026-09-04T07:37:18Z</time>
</trkpt>
<trkpt lat="46.278100000" lon="-72.906510000">
<ele>0</ele>
<time>2026-09-04T07:37:19Z</time>
</trkpt>
<trkpt lat="46.278050000" lon="-72.906190000">
<ele>0</ele>
<time>2026-09-04T07:37:20Z</time>
</trkpt>
<trkpt lat="46.277850000" lon="-72.905260000">
<ele>0</ele>
<time>2026-09-04T07:37:21Z</time>
</trkpt>
<trkpt lat="46.277780000" lon="-72.905020000">
<ele>0</ele>
<time>2026-09-04T07:37:22Z</time>
</trkpt>
<trkpt lat="46.277700000" lon="-72.904790000">
<ele>0</ele>
<time>2026-09-04T07:37:23Z</time>
</trkpt>
<trkpt lat="46.277580000" lon="-72.904590000">
<ele>0</ele>
<time>2026-09-04T07:37:24Z</time>
</trkpt>
<trkpt lat="46.276900000" lon="-72.903740000">
<ele>0</ele>
<time>2026-09-04T07:37:25Z</time>
</trkpt>
<trkpt lat="46.275980000" lon="-72.902510000">
<ele>0</ele>
<time>2026-09-04T07:37:26Z</time>
</trkpt>
<trkpt lat="46.275760000" lon="-72.902210000">
<ele>0</ele>
<time>2026-09-04T07:37:27Z</time>
</trkpt>
<trkpt lat="46.272660000" lon="-72.898160000">
<ele>0</ele>
<time>2026-09-04T07:37:28Z</time>
</trkpt>
<trkpt lat="46.272590000" lon="-72.897980000">
<ele>0</ele>
<time>2026-09-04T07:37:29Z</time>
</trkpt>
<trkpt lat="46.272510000" lon="-72.897620000">
<ele>0</ele>
<time>2026-09-04T07:37:30Z</time>
</trkpt>
<trkpt lat="46.272490000" lon="-72.895830000">
<ele>0</ele>
<time>2026-09-04T07:37:31Z</time>
</trkpt>
<trkpt lat="46.272480000" lon="-72.894790000">
<ele>0</ele>
<time>2026-09-04T07:37:32Z</time>
</trkpt>
<trkpt lat="46.272490000" lon="-72.894530000">
<ele>0</ele>
<time>2026-09-04T07:37:33Z</time>
</trkpt>
<trkpt lat="46.272530000" lon="-72.894010000">
<ele>0</ele>
<time>2026-09-04T07:37:34Z</time>
</trkpt>
<trkpt lat="46.272590000" lon="-72.893500000">
<ele>0</ele>
<time>2026-09-04T07:37:35Z</time>
</trkpt>
<trkpt lat="46.272760000" lon="-72.892760000">
<ele>0</ele>
<time>2026-09-04T07:37:36Z</time>
</trkpt>
<trkpt lat="46.272830000" lon="-72.892580000">
<ele>0</ele>
<time>2026-09-04T07:37:37Z</time>
</trkpt>
<trkpt lat="46.272830000" lon="-72.892580000">
<ele>0</ele>
<time>2026-09-04T07:37:38Z</time>
</trkpt>
<trkpt lat="46.273670000" lon="-72.890370000">
<ele>0</ele>
<time>2026-09-04T07:37:39Z</time>
</trkpt>
<trkpt lat="46.273860000" lon="-72.889810000">
<ele>0</ele>
<time>2026-09-04T07:37:40Z</time>
</trkpt>
<trkpt lat="46.273950000" lon="-72.889460000">
<ele>0</ele>
<time>2026-09-04T07:37:41Z</time>
</trkpt>
<trkpt lat="46.274010000" lon="-72.889200000">
<ele>0</ele>
<time>2026-09-04T07:37:42Z</time>
</trkpt>
<trkpt lat="46.274160000" lon="-72.888530000">
<ele>0</ele>
<time>2026-09-04T07:37:43Z</time>
</trkpt>
<trkpt lat="46.274340000" lon="-72.887180000">
<ele>0</ele>
<time>2026-09-04T07:37:44Z</time>
</trkpt>
<trkpt lat="46.274460000" lon="-72.886480000">
<ele>0</ele>
<time>2026-09-04T07:37:45Z</time>
</trkpt>
<trkpt lat="46.274520000" lon="-72.886150000">
<ele>0</ele>
<time>2026-09-04T07:37:46Z</time>
</trkpt>
<trkpt lat="46.274520000" lon="-72.886150000">
<ele>0</ele>
<time>2026-09-04T07:37:47Z</time>
</trkpt>
<trkpt lat="46.274590000" lon="-72.885760000">
<ele>0</ele>
<time>2026-09-04T07:37:48Z</time>
</trkpt>
<trkpt lat="46.274750000" lon="-72.885200000">
<ele>0</ele>
<time>2026-09-04T07:37:49Z</time>
</trkpt>
<trkpt lat="46.274840000" lon="-72.884930000">
<ele>0</ele>
<time>2026-09-04T07:37:50Z</time>
</trkpt>
<trkpt lat="46.275020000" lon="-72.884260000">
<ele>0</ele>
<time>2026-09-04T07:37:51Z</time>
</trkpt>
<trkpt lat="46.275100000" lon="-72.883790000">
<ele>0</ele>
<time>2026-09-04T07:37:52Z</time>
</trkpt>
<trkpt lat="46.275440000" lon="-72.881530000">
<ele>0</ele>
<time>2026-09-04T07:37:53Z</time>
</trkpt>
<trkpt lat="46.275950000" lon="-72.878060000">
<ele>0</ele>
<time>2026-09-04T07:37:54Z</time>
</trkpt>
<trkpt lat="46.276040000" lon="-72.877640000">
<ele>0</ele>
<time>2026-09-04T07:37:55Z</time>
</trkpt>
<trkpt lat="46.276380000" lon="-72.876390000">
<ele>0</ele>
<time>2026-09-04T07:37:56Z</time>
</trkpt>
<trkpt lat="46.276400000" lon="-72.876260000">
<ele>0</ele>
<time>2026-09-04T07:37:57Z</time>
</trkpt>
<trkpt lat="46.276470000" lon="-72.875680000">
<ele>0</ele>
<time>2026-09-04T07:37:58Z</time>
</trkpt>
<trkpt lat="46.276490000" lon="-72.875200000">
<ele>0</ele>
<time>2026-09-04T07:37:59Z</time>
</trkpt>
<trkpt lat="46.276490000" lon="-72.874970000">
<ele>0</ele>
<time>2026-09-04T07:38:00Z</time>
</trkpt>
<trkpt lat="46.276500000" lon="-72.874840000">
<ele>0</ele>
<time>2026-09-04T07:38:01Z</time>
</trkpt>
<trkpt lat="46.276490000" lon="-72.874510000">
<ele>0</ele>
<time>2026-09-04T07:38:02Z</time>
</trkpt>
<trkpt lat="46.276860000" lon="-72.871870000">
<ele>0</ele>
<time>2026-09-04T07:38:03Z</time>
</trkpt>
<trkpt lat="46.277120000" lon="-72.870090000">
<ele>0</ele>
<time>2026-09-04T07:38:04Z</time>
</trkpt>
<trkpt lat="46.277430000" lon="-72.867970000">
<ele>0</ele>
<time>2026-09-04T07:38:05Z</time>
</trkpt>
<trkpt lat="46.277970000" lon="-72.865780000">
<ele>0</ele>
<time>2026-09-04T07:38:06Z</time>
</trkpt>
<trkpt lat="46.278040000" lon="-72.865420000">
<ele>0</ele>
<time>2026-09-04T07:38:07Z</time>
</trkpt>
<trkpt lat="46.278150000" lon="-72.864200000">
<ele>0</ele>
<time>2026-09-04T07:38:08Z</time>
</trkpt>
<trkpt lat="46.278140000" lon="-72.863170000">
<ele>0</ele>
<time>2026-09-04T07:38:09Z</time>
</trkpt>
<trkpt lat="46.278080000" lon="-72.861740000">
<ele>0</ele>
<time>2026-09-04T07:38:10Z</time>
</trkpt>
<trkpt lat="46.278020000" lon="-72.860400000">
<ele>0</ele>
<time>2026-09-04T07:38:11Z</time>
</trkpt>
<trkpt lat="46.278060000" lon="-72.859800000">
<ele>0</ele>
<time>2026-09-04T07:38:12Z</time>
</trkpt>
<trkpt lat="46.278330000" lon="-72.857440000">
<ele>0</ele>
<time>2026-09-04T07:38:13Z</time>
</trkpt>
<trkpt lat="46.278760000" lon="-72.855730000">
<ele>0</ele>
<time>2026-09-04T07:38:14Z</time>
</trkpt>
<trkpt lat="46.278880000" lon="-72.855290000">
<ele>0</ele>
<time>2026-09-04T07:38:15Z</time>
</trkpt>
<trkpt lat="46.279340000" lon="-72.853600000">
<ele>0</ele>
<time>2026-09-04T07:38:16Z</time>
</trkpt>
<trkpt lat="46.279850000" lon="-72.851750000">
<ele>0</ele>
<time>2026-09-04T07:38:17Z</time>
</trkpt>
<trkpt lat="46.280310000" lon="-72.850060000">
<ele>0</ele>
<time>2026-09-04T07:38:18Z</time>
</trkpt>
<trkpt lat="46.280380000" lon="-72.849810000">
<ele>0</ele>
<time>2026-09-04T07:38:19Z</time>
</trkpt>
<trkpt lat="46.280380000" lon="-72.849680000">
<ele>0</ele>
<time>2026-09-04T07:38:20Z</time>
</trkpt>
<trkpt lat="46.280360000" lon="-72.849560000">
<ele>0</ele>
<time>2026-09-04T07:38:21Z</time>
</trkpt>
<trkpt lat="46.280240000" lon="-72.849390000">
<ele>0</ele>
<time>2026-09-04T07:38:22Z</time>
</trkpt>
<trkpt lat="46.280090000" lon="-72.849150000">
<ele>0</ele>
<time>2026-09-04T07:38:23Z</time>
</trkpt>
<trkpt lat="46.279700000" lon="-72.848640000">
<ele>0</ele>
<time>2026-09-04T07:38:24Z</time>
</trkpt>
<trkpt lat="46.279590000" lon="-72.848450000">
<ele>0</ele>
<time>2026-09-04T07:38:25Z</time>
</trkpt>
<trkpt lat="46.279630000" lon="-72.848230000">
<ele>0</ele>
<time>2026-09-04T07:38:26Z</time>
</trkpt>
<trkpt lat="46.279630000" lon="-72.848230000">
<ele>0</ele>
<time>2026-09-04T07:38:27Z</time>
</trkpt>
<trkpt lat="46.280230000" lon="-72.844460000">
<ele>0</ele>
<time>2026-09-04T07:38:28Z</time>
</trkpt>
<trkpt lat="46.280380000" lon="-72.843440000">
<ele>0</ele>
<time>2026-09-04T07:38:29Z</time>
</trkpt>
<trkpt lat="46.280400000" lon="-72.843100000">
<ele>0</ele>
<time>2026-09-04T07:38:30Z</time>
</trkpt>
<trkpt lat="46.280360000" lon="-72.842790000">
<ele>0</ele>
<time>2026-09-04T07:38:31Z</time>
</trkpt>
<trkpt lat="46.280300000" lon="-72.842590000">
<ele>0</ele>
<time>2026-09-04T07:38:32Z</time>
</trkpt>
<trkpt lat="46.280200000" lon="-72.842400000">
<ele>0</ele>
<time>2026-09-04T07:38:33Z</time>
</trkpt>
<trkpt lat="46.279640000" lon="-72.841600000">
<ele>0</ele>
<time>2026-09-04T07:38:34Z</time>
</trkpt>
<trkpt lat="46.279190000" lon="-72.841020000">
<ele>0</ele>
<time>2026-09-04T07:38:35Z</time>
</trkpt>
<trkpt lat="46.278920000" lon="-72.840680000">
<ele>0</ele>
<time>2026-09-04T07:38:36Z</time>
</trkpt>
<trkpt lat="46.278680000" lon="-72.840370000">
<ele>0</ele>
<time>2026-09-04T07:38:37Z</time>
</trkpt>
<trkpt lat="46.278760000" lon="-72.840110000">
<ele>0</ele>
<time>2026-09-04T07:38:38Z</time>
</trkpt>
<trkpt lat="46.278760000" lon="-72.840110000">
<ele>0</ele>
<time>2026-09-04T07:38:39Z</time>
</trkpt>
<trkpt lat="46.279220000" lon="-72.838760000">
<ele>0</ele>
<time>2026-09-04T07:38:40Z</time>
</trkpt>
<trkpt lat="46.279590000" lon="-72.837760000">
<ele>0</ele>
<time>2026-09-04T07:38:41Z</time>
</trkpt>
<trkpt lat="46.280090000" lon="-72.836360000">
<ele>0</ele>
<time>2026-09-04T07:38:42Z</time>
</trkpt>
<trkpt lat="46.281340000" lon="-72.833000000">
<ele>0</ele>
<time>2026-09-04T07:38:43Z</time>
</trkpt>
<trkpt lat="46.281830000" lon="-72.831730000">
<ele>0</ele>
<time>2026-09-04T07:38:44Z</time>
</trkpt>
<trkpt lat="46.282110000" lon="-72.831190000">
<ele>0</ele>
<time>2026-09-04T07:38:45Z</time>
</trkpt>
<trkpt lat="46.282140000" lon="-72.831130000">
<ele>0</ele>
<time>2026-09-04T07:38:46Z</time>
</trkpt>
</trkseg>
</trk>
</gpx>
